Wetterdaten: Freitag, 20.12.2013
Datum Zeit Temp. Aussen +5cm Feuchte Auss Luftdruck Regen Sonnenschein Regendauer UV Solar Windben
20.12.2013 00:00 2,9 C 1,1 C 95 % 1012,1 hPa 0,0 l/m 0 min 0 min 0,0 UV-I 0 W/m 0,0 km/h (0 Bft)
20.12.2013 00:02 2,9 C 1,1 C 95 % 1012,2 hPa 0,0 l/m 0 min 0 min 0,0 UV-I 0 W/m 2,6 km/h (1 Bft)
20.12.2013 00:06 2,9 C 1,1 C 95 % 1012,3 hPa 0,0 l/m 0 min 0 min 0,0 UV-I 0 W/m 0,0 km/h (0 Bft)
20.12.2013 00:08 2,9 C 1,1 C 95 % 1012,3 hPa 0,0 l/m 0 min 0 min 0,0 UV-I 0 W/m 0,0 km/h (0 Bft)
20.12.2013 00:10 2,8 C 1,1 C 95 % 1012,4 hPa 0,0 l/m 0 min 0 min 0,0 UV-I 0 W/m 0,0 km/h (0 Bft)
20.12.2013 00:12 2,8 C 1,1 C 95 % 1012,4 hPa 0,0 l/m 0 min 0 min 0,0 UV-I 0 W/m 0,0 km/h (0 Bft)
20.12.2013 00:14 2,8 C 1,1 C 95 % 1012,4 hPa 0,0 l/m 0 min 0 min 0,0 UV-I 0 W/m 0,0 km/h (0 Bft)
20.12.2013 00:16 2,8 C 1,1 C 95 % 1012,4 hPa 0,0 l/m 0 min 0 min 0,0 UV-I 0 W/m 0,0 km/h (0 Bft)
20.12.2013 00:18 2,8 C 1,1 C 95 % 1012,5 hPa 0,0 l/m 0 min 0 min 0,0 UV-I 0 W/m 0,0 km/h (0 Bft)
20.12.2013 00:20 2,7 C 0,6 C 95 % 1012,5 hPa 0,0 l/m 0 min 0 min 0,0 UV-I 0 W/m 0,0 km/h (0 Bft)
20.12.2013 00:22 2,7 C 0,6 C 95 % 1012,6 hPa 0,0 l/m 0 min 0 min 0,0 UV-I 0 W/m 0,0 km/h (0 Bft)
20.12.2013 00:24 2,7 C 0,6 C 95 % 1012,7 hPa 0,0 l/m 0 min 0 min 0,0 UV-I 0 W/m 0,0 km/h (0 Bft)
20.12.2013 00:26 2,7 C 0,6 C 95 % 1012,8 hPa 0,0 l/m 0 min 0 min 0,0 UV-I 0 W/m 0,0 km/h (0 Bft)
20.12.2013 00:28 2,7 C 0,6 C 95 % 1012,8 hPa 0,0 l/m 0 min 0 min 0,0 UV-I 0 W/m 0,0 km/h (0 Bft)
20.12.2013 00:30 2,6 C 0,6 C 95 % 1012,9 hPa 0,0 l/m 0 min 0 min 0,0 UV-I 0 W/m 0,0 km/h (0 Bft)
20.12.2013 00:32 2,6 C 0,6 C 95 % 1013,0 hPa 0,0 l/m 0 min 0 min 0,0 UV-I 0 W/m 0,0 km/h (0 Bft)
20.12.2013 00:34 2,6 C 0,6 C 95 % 1013,0 hPa 0,0 l/m 0 min 0 min 0,0 UV-I 0 W/m 0,0 km/h (0 Bft)
20.12.2013 00:36 2,6 C 0,6 C 95 % 1013,0 hPa 0,0 l/m 0 min 0 min 0,0 UV-I 0 W/m 0,0 km/h (0 Bft)
20.12.2013 00:38 2,5 C 0,6 C 95 % 1013,0 hPa 0,0 l/m 0 min 0 min 0,0 UV-I 0 W/m 0,0 km/h (0 Bft)
20.12.2013 00:40 2,5 C 0,6 C 95 % 1013,1 hPa 0,0 l/m 0 min 0 min 0,0 UV-I 0 W/m 0,0 km/h (0 Bft)
20.12.2013 00:42 2,4 C 0,6 C 96 % 1013,2 hPa 0,0 l/m 0 min 0 min 0,0 UV-I 0 W/m 0,0 km/h (0 Bft)
20.12.2013 00:44 2,4 C 0,6 C 96 % 1013,2 hPa 0,0 l/m 0 min 0 min 0,0 UV-I 0 W/m 0,0 km/h (0 Bft)
20.12.2013 00:46 2,4 C 0,6 C 95 % 1013,2 hPa 0,0 l/m 0 min 0 min 0,0 UV-I 0 W/m 5,1 km/h (1 Bft)
20.12.2013 00:48 2,4 C 0,6 C 95 % 1013,2 hPa 0,0 l/m 0 min 0 min 0,0 UV-I 0 W/m 0,0 km/h (0 Bft)
20.12.2013 00:50 2,3 C 0,6 C 95 % 1013,2 hPa 0,0 l/m 0 min 0 min 0,0 UV-I 0 W/m 2,6 km/h (1 Bft)
20.12.2013 00:52 2,4 C 0,6 C 95 % 1013,3 hPa 0,0 l/m 0 min 0 min 0,0 UV-I 0 W/m 0,0 km/h (0 Bft)
20.12.2013 00:54 2,3 C 0,6 C 95 % 1013,3 hPa 0,0 l/m 0 min 0 min 0,0 UV-I 0 W/m 0,0 km/h (0 Bft)
20.12.2013 00:56 2,3 C 0,6 C 95 % 1013,3 hPa 0,0 l/m 0 min 0 min 0,0 UV-I 0 W/m 0,0 km/h (0 Bft)
20.12.2013 00:58 2,3 C 0,6 C 96 % 1013,3 hPa 0,0 l/m 0 min 0 min 0,0 UV-I 0 W/m 0,0 km/h (0 Bft)
20.12.2013 01:00 2,3 C 0,6 C 96 % 1013,4 hPa 0,0 l/m 0 min 0 min 0,0 UV-I 0 W/m 0,0 km/h (0 Bft)
20.12.2013 01:02 2,3 C 0,6 C 96 % 1013,4 hPa 0,0 l/m 0 min 0 min 0,0 UV-I 0 W/m 0,0 km/h (0 Bft)
20.12.2013 01:04 2,3 C 0,6 C 96 % 1013,4 hPa 0,0 l/m 0 min 0 min 0,0 UV-I 0 W/m 0,0 km/h (0 Bft)
20.12.2013 01:06 2,3 C 0,6 C 96 % 1013,4 hPa 0,0 l/m 0 min 0 min 0,0 UV-I 0 W/m 5,1 km/h (1 Bft)
20.12.2013 01:08 2,3 C 0,6 C 96 % 1013,3 hPa 0,0 l/m 0 min 0 min 0,0 UV-I 0 W/m 0,0 km/h (0 Bft)
20.12.2013 01:10 2,3 C 0,6 C 96 % 1013,4 hPa 0,0 l/m 0 min 0 min 0,0 UV-I 0 W/m 0,0 km/h (0 Bft)
20.12.2013 01:12 2,3 C 0,6 C 96 % 1013,3 hPa 0,0 l/m 0 min 0 min 0,0 UV-I 0 W/m 0,0 km/h (0 Bft)
20.12.2013 01:14 2,2 C 0,6 C 96 % 1013,3 hPa 0,0 l/m 0 min 0 min 0,0 UV-I 0 W/m 0,0 km/h (0 Bft)
20.12.2013 01:16 2,2 C 0,6 C 96 % 1013,4 hPa 0,0 l/m 0 min 0 min 0,0 UV-I 0 W/m 0,0 km/h (0 Bft)
20.12.2013 01:18 2,2 C 0,6 C 96 % 1013,3 hPa 0,0 l/m 0 min 0 min 0,0 UV-I 0 W/m 0,0 km/h (0 Bft)
20.12.2013 01:20 2,2 C 0,6 C 96 % 1013,4 hPa 0,0 l/m 0 min 0 min 0,0 UV-I 0 W/m 2,6 km/h (1 Bft)
20.12.2013 01:22 2,2 C 0,6 C 96 % 1013,3 hPa 0,0 l/m 0 min 0 min 0,0 UV-I 0 W/m 2,6 km/h (1 Bft)
20.12.2013 01:24 2,2 C 0,6 C 96 % 1013,4 hPa 0,0 l/m 0 min 0 min 0,0 UV-I 0 W/m 7,7 km/h (2 Bft)
20.12.2013 01:26 2,2 C 0,6 C 96 % 1013,4 hPa 0,0 l/m 0 min 0 min 0,0 UV-I 0 W/m 0,0 km/h (0 Bft)
20.12.2013 01:28 2,2 C 0,6 C 96 % 1013,5 hPa 0,0 l/m 0 min 0 min 0,0 UV-I 0 W/m 2,6 km/h (1 Bft)
20.12.2013 01:30 2,2 C 0,6 C 96 % 1013,6 hPa 0,0 l/m 0 min 0 min 0,0 UV-I 0 W/m 0,0 km/h (0 Bft)
20.12.2013 01:32 2,2 C 0,6 C 96 % 1013,7 hPa 0,0 l/m 0 min 0 min 0,0 UV-I 0 W/m 5,1 km/h (1 Bft)
20.12.2013 01:34 2,2 C 0,6 C 96 % 1013,7 hPa 0,0 l/m 0 min 0 min 0,0 UV-I 0 W/m 0,0 km/h (0 Bft)
20.12.2013 01:36 2,1 C 0,6 C 96 % 1013,8 hPa 0,0 l/m 0 min 0 min 0,0 UV-I 0 W/m 0,0 km/h (0 Bft)
20.12.2013 01:38 2,1 C 0,6 C 96 % 1013,8 hPa 0,0 l/m 0 min 0 min 0,0 UV-I 0 W/m 0,0 km/h (0 Bft)
20.12.2013 01:40 2,1 C 0,6 C 96 % 1013,9 hPa 0,0 l/m 0 min 0 min 0,0 UV-I 0 W/m 0,0 km/h (0 Bft)
20.12.2013 01:42 2,1 C 0,6 C 96 % 1013,9 hPa 0,0 l/m 0 min 0 min 0,0 UV-I 0 W/m 0,0 km/h (0 Bft)
20.12.2013 01:44 2,1 C 0,6 C 96 % 1013,9 hPa 0,0 l/m 0 min 0 min 0,0 UV-I 0 W/m 0,0 km/h (0 Bft)
20.12.2013 01:46 2,1 C 0,6 C 96 % 1014,0 hPa 0,0 l/m 0 min 0 min 0,0 UV-I 0 W/m 0,0 km/h (0 Bft)
20.12.2013 01:48 2,1 C 0,6 C 96 % 1014,1 hPa 0,0 l/m 0 min 0 min 0,0 UV-I 0 W/m 0,0 km/h (0 Bft)
20.12.2013 01:50 2,1 C 0,6 C 96 % 1014,1 hPa 0,0 l/m 0 min 0 min 0,0 UV-I 0 W/m 0,0 km/h (0 Bft)
20.12.2013 01:52 2,0 C 0,6 C 96 % 1014,2 hPa 0,0 l/m 0 min 0 min 0,0 UV-I 0 W/m 0,0 km/h (0 Bft)
20.12.2013 01:54 2,0 C 0,6 C 96 % 1014,3 hPa 0,0 l/m 0 min 0 min 0,0 UV-I 0 W/m 0,0 km/h (0 Bft)
20.12.2013 01:56 2,0 C 0,6 C 96 % 1014,3 hPa 0,0 l/m 0 min 0 min 0,0 UV-I 0 W/m 0,0 km/h (0 Bft)
20.12.2013 01:58 2,0 C 0,6 C 96 % 1014,4 hPa 0,0 l/m 0 min 0 min 0,0 UV-I 0 W/m 0,0 km/h (0 Bft)
20.12.2013 02:00 2,0 C 0,6 C 96 % 1014,5 hPa 0,0 l/m 0 min 0 min 0,0 UV-I 0 W/m 0,0 km/h (0 Bft)
20.12.2013 02:02 1,9 C 0,6 C 96 % 1014,6 hPa 0,0 l/m 0 min 0 min 0,0 UV-I 0 W/m 2,6 km/h (1 Bft)
20.12.2013 02:04 2,0 C 0,6 C 96 % 1014,6 hPa 0,0 l/m 0 min 0 min 0,0 UV-I 0 W/m 0,0 km/h (0 Bft)
20.12.2013 02:06 1,9 C 0,6 C 96 % 1014,7 hPa 0,0 l/m 0 min 0 min 0,0 UV-I 0 W/m 0,0 km/h (0 Bft)
20.12.2013 02:08 1,9 C 0,6 C 96 % 1014,6 hPa 0,0 l/m 0 min 0 min 0,0 UV-I 0 W/m 0,0 km/h (0 Bft)
20.12.2013 02:10 1,9 C 0,6 C 96 % 1014,6 hPa 0,0 l/m 0 min 0 min 0,0 UV-I 0 W/m 0,0 km/h (0 Bft)
20.12.2013 02:12 1,9 C 0,6 C 96 % 1014,7 hPa 0,0 l/m 0 min 0 min 0,0 UV-I 0 W/m 0,0 km/h (0 Bft)
20.12.2013 02:14 1,9 C 0,6 C 96 % 1014,8 hPa 0,0 l/m 0 min 0 min 0,0 UV-I 0 W/m 0,0 km/h (0 Bft)
20.12.2013 02:16 1,9 C 0,6 C 96 % 1014,8 hPa 0,0 l/m 0 min 0 min 0,0 UV-I 0 W/m 5,1 km/h (1 Bft)
20.12.2013 02:18 1,9 C 0,6 C 96 % 1014,7 hPa 0,0 l/m 0 min 0 min 0,0 UV-I 0 W/m 5,1 km/h (1 Bft)
20.12.2013 02:20 1,9 C 1,1 C 96 % 1014,8 hPa 0,0 l/m 0 min 0 min 0,0 UV-I 0 W/m 7,7 km/h (2 Bft)
20.12.2013 02:22 2,0 C 1,1 C 96 % 1014,8 hPa 0,0 l/m 0 min 0 min 0,0 UV-I 0 W/m 0,0 km/h (0 Bft)
20.12.2013 02:24 2,0 C 1,1 C 96 % 1014,8 hPa 0,0 l/m 0 min 0 min 0,0 UV-I 0 W/m 0,0 km/h (0 Bft)
20.12.2013 02:26 2,0 C 0,6 C 96 % 1014,7 hPa 0,0 l/m 0 min 0 min 0,0 UV-I 0 W/m 2,6 km/h (1 Bft)
20.12.2013 02:28 2,0 C 0,6 C 96 % 1014,7 hPa 0,0 l/m 0 min 0 min 0,0 UV-I 0 W/m 2,6 km/h (1 Bft)
20.12.2013 02:30 2,0 C 0,6 C 96 % 1014,7 hPa 0,0 l/m 0 min 0 min 0,0 UV-I 0 W/m 0,0 km/h (0 Bft)
20.12.2013 02:32 2,0 C 0,6 C 96 % 1014,7 hPa 0,0 l/m 0 min 0 min 0,0 UV-I 0 W/m 2,6 km/h (1 Bft)
20.12.2013 02:34 2,1 C 0,6 C 97 % 1014,7 hPa 0,0 l/m 0 min 0 min 0,0 UV-I 0 W/m 0,0 km/h (0 Bft)
20.12.2013 02:36 2,1 C 0,6 C 97 % 1014,7 hPa 0,0 l/m 0 min 0 min 0,0 UV-I 0 W/m 0,0 km/h (0 Bft)
20.12.2013 02:38 2,1 C 0,6 C 97 % 1014,8 hPa 0,0 l/m 0 min 0 min 0,0 UV-I 0 W/m 0,0 km/h (0 Bft)
20.12.2013 02:40 2,1 C 0,6 C 97 % 1014,8 hPa 0,0 l/m 0 min 0 min 0,0 UV-I 0 W/m 0,0 km/h (0 Bft)
20.12.2013 02:42 2,1 C 0,6 C 97 % 1014,8 hPa 0,0 l/m 0 min 0 min 0,0 UV-I 0 W/m 0,0 km/h (0 Bft)
20.12.2013 02:44 2,1 C 0,6 C 97 % 1014,8 hPa 0,0 l/m 0 min 0 min 0,0 UV-I 0 W/m 0,0 km/h (0 Bft)
20.12.2013 02:46 2,1 C 0,6 C 97 % 1014,8 hPa 0,0 l/m 0 min 0 min 0,0 UV-I 0 W/m 0,0 km/h (0 Bft)
20.12.2013 02:48 2,0 C 0,6 C 97 % 1014,8 hPa 0,0 l/m 0 min 0 min 0,0 UV-I 0 W/m 0,0 km/h (0 Bft)
20.12.2013 02:50 2,0 C 0,6 C 97 % 1014,8 hPa 0,0 l/m 0 min 0 min 0,0 UV-I 0 W/m 0,0 km/h (0 Bft)
20.12.2013 02:52 2,0 C 0,6 C 97 % 1014,8 hPa 0,0 l/m 0 min 0 min 0,0 UV-I 0 W/m 5,1 km/h (1 Bft)
20.12.2013 02:54 2,0 C 0,6 C 97 % 1014,8 hPa 0,0 l/m 0 min 0 min 0,0 UV-I 0 W/m 0,0 km/h (0 Bft)
20.12.2013 02:56 2,0 C 0,6 C 97 % 1014,8 hPa 0,0 l/m 0 min 0 min 0,0 UV-I 0 W/m 0,0 km/h (0 Bft)
20.12.2013 02:58 2,0 C 0,6 C 97 % 1014,9 hPa 0,0 l/m 0 min 0 min 0,0 UV-I 0 W/m 0,0 km/h (0 Bft)
20.12.2013 03:00 2,0 C 0,6 C 97 % 1014,9 hPa 0,0 l/m 0 min 0 min 0,0 UV-I 0 W/m 0,0 km/h (0 Bft)
20.12.2013 03:02 2,0 C 0,6 C 96 % 1014,9 hPa 0,0 l/m 0 min 0 min 0,0 UV-I 0 W/m 0,0 km/h (0 Bft)
20.12.2013 03:04 1,9 C 0,6 C 96 % 1014,8 hPa 0,0 l/m 0 min 0 min 0,0 UV-I 0 W/m 0,0 km/h (0 Bft)
20.12.2013 03:06 1,9 C 0,6 C 96 % 1014,9 hPa 0,0 l/m 0 min 0 min 0,0 UV-I 0 W/m 0,0 km/h (0 Bft)
20.12.2013 03:08 1,9 C 0,6 C 96 % 1015,0 hPa 0,0 l/m 0 min 0 min 0,0 UV-I 0 W/m 0,0 km/h (0 Bft)
20.12.2013 03:10 1,9 C 0,6 C 96 % 1015,0 hPa 0,0 l/m 0 min 0 min 0,0 UV-I 0 W/m 0,0 km/h (0 Bft)
20.12.2013 03:12 1,9 C 0,6 C 97 % 1015,0 hPa 0,0 l/m 0 min 0 min 0,0 UV-I 0 W/m 0,0 km/h (0 Bft)
20.12.2013 03:14 1,9 C 0,6 C 97 % 1015,1 hPa 0,0 l/m 0 min 0 min 0,0 UV-I 0 W/m 2,6 km/h (1 Bft)
20.12.2013 03:16 1,9 C 0,6 C 97 % 1015,1 hPa 0,0 l/m 0 min 0 min 0,0 UV-I 0 W/m 5,1 km/h (1 Bft)
20.12.2013 03:18 1,9 C 0,6 C 97 % 1015,3 hPa 0,0 l/m 0 min 0 min 0,0 UV-I 0 W/m 7,7 km/h (2 Bft)
20.12.2013 03:20 1,9 C 0,6 C 97 % 1015,4 hPa 0,0 l/m 0 min 0 min 0,0 UV-I 0 W/m 2,6 km/h (1 Bft)
20.12.2013 03:22 1,9 C 0,6 C 97 % 1015,4 hPa 0,0 l/m 0 min 0 min 0,0 UV-I 0 W/m 0,0 km/h (0 Bft)
20.12.2013 03:24 1,9 C 0,6 C 97 % 1015,4 hPa 0,0 l/m 0 min 0 min 0,0 UV-I 0 W/m 0,0 km/h (0 Bft)
20.12.2013 03:26 1,9 C 1,1 C 97 % 1015,3 hPa 0,0 l/m 0 min 0 min 0,0 UV-I 0 W/m 0,0 km/h (0 Bft)
20.12.2013 03:28 1,9 C 1,1 C 97 % 1015,4 hPa 0,0 l/m 0 min 0 min 0,0 UV-I 0 W/m 0,0 km/h (0 Bft)
20.12.2013 03:30 1,9 C 1,1 C 97 % 1015,3 hPa 0,0 l/m 0 min 0 min 0,0 UV-I 0 W/m 0,0 km/h (0 Bft)
20.12.2013 03:32 1,9 C 1,1 C 97 % 1015,2 hPa 0,0 l/m 0 min 0 min 0,0 UV-I 0 W/m 0,0 km/h (0 Bft)
20.12.2013 03:34 1,9 C 1,1 C 97 % 1015,2 hPa 0,0 l/m 0 min 0 min 0,0 UV-I 0 W/m 0,0 km/h (0 Bft)
20.12.2013 03:36 1,9 C 1,1 C 97 % 1015,2 hPa 0,0 l/m 0 min 0 min 0,0 UV-I 0 W/m 0,0 km/h (0 Bft)
20.12.2013 03:38 1,9 C 0,6 C 97 % 1015,2 hPa 0,0 l/m 0 min 0 min 0,0 UV-I 0 W/m 0,0 km/h (0 Bft)
20.12.2013 03:40 1,9 C 0,6 C 97 % 1015,2 hPa 0,0 l/m 0 min 0 min 0,0 UV-I 0 W/m 0,0 km/h (0 Bft)
20.12.2013 03:42 1,9 C 0,6 C 97 % 1015,2 hPa 0,0 l/m 0 min 0 min 0,0 UV-I 0 W/m 0,0 km/h (0 Bft)
20.12.2013 03:44 1,9 C 0,6 C 97 % 1015,2 hPa 0,0 l/m 0 min 0 min 0,0 UV-I 0 W/m 0,0 km/h (0 Bft)
20.12.2013 03:46 1,9 C 0,6 C 97 % 1015,1 hPa 0,0 l/m 0 min 0 min 0,0 UV-I 0 W/m 0,0 km/h (0 Bft)
20.12.2013 03:48 1,9 C 0,6 C 97 % 1015,1 hPa 0,0 l/m 0 min 0 min 0,0 UV-I 0 W/m 0,0 km/h (0 Bft)
20.12.2013 03:50 1,9 C 0,6 C 97 % 1015,0 hPa 0,0 l/m 0 min 0 min 0,0 UV-I 0 W/m 0,0 km/h (0 Bft)
20.12.2013 03:52 1,9 C 0,6 C 97 % 1014,9 hPa 0,0 l/m 0 min 0 min 0,0 UV-I 0 W/m 0,0 km/h (0 Bft)
20.12.2013 03:54 1,9 C 0,6 C 97 % 1014,9 hPa 0,0 l/m 0 min 0 min 0,0 UV-I 0 W/m 0,0 km/h (0 Bft)
20.12.2013 03:56 1,9 C 0,6 C 97 % 1014,9 hPa 0,0 l/m 0 min 0 min 0,0 UV-I 0 W/m 0,0 km/h (0 Bft)
20.12.2013 03:58 1,9 C 0,6 C 97 % 1014,9 hPa 0,0 l/m 0 min 0 min 0,0 UV-I 0 W/m 0,0 km/h (0 Bft)
20.12.2013 04:00 1,9 C 0,6 C 97 % 1015,0 hPa 0,0 l/m 0 min 0 min 0,0 UV-I 0 W/m 0,0 km/h (0 Bft)
20.12.2013 04:02 1,9 C 0,6 C 97 % 1015,0 hPa 0,0 l/m 0 min 0 min 0,0 UV-I 0 W/m 0,0 km/h (0 Bft)
20.12.2013 04:06 1,8 C 0,6 C 97 % 1015,0 hPa 0,0 l/m 0 min 0 min 0,0 UV-I 0 W/m 0,0 km/h (0 Bft)
20.12.2013 04:08 1,8 C 0,6 C 97 % 1014,9 hPa 0,0 l/m 0 min 0 min 0,0 UV-I 0 W/m 0,0 km/h (0 Bft)
20.12.2013 04:10 1,8 C 0,6 C 97 % 1015,0 hPa 0,0 l/m 0 min 0 min 0,0 UV-I 0 W/m 0,0 km/h (0 Bft)
20.12.2013 04:12 1,8 C 0,6 C 97 % 1015,0 hPa 0,0 l/m 0 min 0 min 0,0 UV-I 0 W/m 0,0 km/h (0 Bft)
20.12.2013 04:14 1,8 C 0,6 C 97 % 1014,9 hPa 0,0 l/m 0 min 0 min 0,0 UV-I 0 W/m 0,0 km/h (0 Bft)
20.12.2013 04:16 1,8 C 0,6 C 97 % 1015,0 hPa 0,0 l/m 0 min 0 min 0,0 UV-I 0 W/m 0,0 km/h (0 Bft)
20.12.2013 04:18 1,8 C 0,6 C 97 % 1015,0 hPa 0,0 l/m 0 min 0 min 0,0 UV-I 0 W/m 0,0 km/h (0 Bft)
20.12.2013 04:20 1,8 C 0,6 C 97 % 1015,1 hPa 0,0 l/m 0 min 0 min 0,0 UV-I 0 W/m 0,0 km/h (0 Bft)
20.12.2013 04:22 1,8 C 0,6 C 97 % 1015,1 hPa 0,0 l/m 0 min 0 min 0,0 UV-I 0 W/m 0,0 km/h (0 Bft)
20.12.2013 04:24 1,8 C 0,6 C 97 % 1015,0 hPa 0,0 l/m 0 min 0 min 0,0 UV-I 0 W/m 0,0 km/h (0 Bft)
20.12.2013 04:26 1,8 C 0,6 C 97 % 1015,1 hPa 0,0 l/m 0 min 0 min 0,0 UV-I 0 W/m 0,0 km/h (0 Bft)
20.12.2013 04:28 1,8 C 0,6 C 97 % 1015,1 hPa 0,0 l/m 0 min 0 min 0,0 UV-I 0 W/m 0,0 km/h (0 Bft)
20.12.2013 04:30 1,8 C 0,6 C 97 % 1015,0 hPa 0,0 l/m 0 min 0 min 0,0 UV-I 0 W/m 0,0 km/h (0 Bft)
20.12.2013 04:32 1,8 C 0,6 C 97 % 1015,0 hPa 0,0 l/m 0 min 0 min 0,0 UV-I 0 W/m 0,0 km/h (0 Bft)
20.12.2013 04:34 1,8 C 0,6 C 97 % 1015,0 hPa 0,0 l/m 0 min 0 min 0,0 UV-I 0 W/m 0,0 km/h (0 Bft)
20.12.2013 04:36 1,8 C 0,6 C 97 % 1015,0 hPa 0,0 l/m 0 min 0 min 0,0 UV-I 0 W/m 0,0 km/h (0 Bft)
20.12.2013 04:38 1,8 C 0,6 C 97 % 1015,0 hPa 0,0 l/m 0 min 0 min 0,0 UV-I 0 W/m 0,0 km/h (0 Bft)
20.12.2013 04:40 1,8 C 0,6 C 97 % 1015,0 hPa 0,0 l/m 0 min 0 min 0,0 UV-I 0 W/m 0,0 km/h (0 Bft)
20.12.2013 04:42 1,8 C 0,6 C 97 % 1015,0 hPa 0,0 l/m 0 min 0 min 0,0 UV-I 0 W/m 0,0 km/h (0 Bft)
20.12.2013 04:44 1,8 C 1,1 C 97 % 1015,1 hPa 0,0 l/m 0 min 0 min 0,0 UV-I 0 W/m 0,0 km/h (0 Bft)
20.12.2013 04:46 1,8 C 1,1 C 97 % 1015,1 hPa 0,0 l/m 0 min 0 min 0,0 UV-I 0 W/m 0,0 km/h (0 Bft)
20.12.2013 04:48 1,8 C 1,1 C 97 % 1015,1 hPa 0,0 l/m 0 min 0 min 0,0 UV-I 0 W/m 0,0 km/h (0 Bft)
20.12.2013 04:50 1,8 C 1,1 C 97 % 1015,2 hPa 0,0 l/m 0 min 0 min 0,0 UV-I 0 W/m 0,0 km/h (0 Bft)
20.12.2013 04:52 1,9 C 1,1 C 97 % 1015,3 hPa 0,0 l/m 0 min 0 min 0,0 UV-I 0 W/m 0,0 km/h (0 Bft)
20.12.2013 04:54 1,9 C 1,1 C 97 % 1015,3 hPa 0,0 l/m 0 min 0 min 0,0 UV-I 0 W/m 0,0 km/h (0 Bft)
20.12.2013 04:56 1,9 C 1,1 C 97 % 1015,3 hPa 0,0 l/m 0 min 0 min 0,0 UV-I 0 W/m 0,0 km/h (0 Bft)
20.12.2013 04:58 1,9 C 1,1 C 97 % 1015,4 hPa 0,0 l/m 0 min 0 min 0,0 UV-I 0 W/m 0,0 km/h (0 Bft)
20.12.2013 05:00 1,9 C 1,1 C 97 % 1015,4 hPa 0,0 l/m 0 min 0 min 0,0 UV-I 0 W/m 0,0 km/h (0 Bft)
20.12.2013 05:02 2,0 C 1,1 C 97 % 1015,4 hPa 0,0 l/m 0 min 0 min 0,0 UV-I 0 W/m 0,0 km/h (0 Bft)
20.12.2013 05:04 2,1 C 1,1 C 97 % 1015,5 hPa 0,0 l/m 0 min 0 min 0,0 UV-I 0 W/m 0,0 km/h (0 Bft)
20.12.2013 05:06 2,1 C 1,7 C 97 % 1015,5 hPa 0,0 l/m 0 min 0 min 0,0 UV-I 0 W/m 2,6 km/h (1 Bft)
20.12.2013 05:08 2,2 C 1,7 C 97 % 1015,6 hPa 0,0 l/m 0 min 0 min 0,0 UV-I 0 W/m 0,0 km/h (0 Bft)
20.12.2013 05:10 2,2 C 1,7 C 97 % 1015,7 hPa 0,0 l/m 0 min 0 min 0,0 UV-I 0 W/m 5,1 km/h (1 Bft)
20.12.2013 05:12 2,3 C 1,7 C 97 % 1015,8 hPa 0,0 l/m 0 min 0 min 0,0 UV-I 0 W/m 7,7 km/h (2 Bft)
20.12.2013 05:14 2,3 C 1,7 C 97 % 1015,8 hPa 0,0 l/m 0 min 0 min 0,0 UV-I 0 W/m 7,7 km/h (2 Bft)
20.12.2013 05:16 2,4 C 1,7 C 97 % 1015,8 hPa 0,0 l/m 0 min 0 min 0,0 UV-I 0 W/m 7,7 km/h (2 Bft)
20.12.2013 05:18 2,4 C 1,7 C 97 % 1015,7 hPa 0,0 l/m 0 min 0 min 0,0 UV-I 0 W/m 10,3 km/h (2 Bft)
20.12.2013 05:20 2,4 C 1,7 C 97 % 1015,8 hPa 0,0 l/m 0 min 0 min 0,0 UV-I 0 W/m 5,1 km/h (1 Bft)
20.12.2013 05:22 2,4 C 1,7 C 97 % 1015,8 hPa 0,0 l/m 0 min 0 min 0,0 UV-I 0 W/m 10,3 km/h (2 Bft)
20.12.2013 05:24 2,4 C 1,7 C 97 % 1015,9 hPa 0,0 l/m 0 min 0 min 0,0 UV-I 0 W/m 5,1 km/h (1 Bft)
20.12.2013 05:26 2,4 C 1,7 C 97 % 1015,9 hPa 0,0 l/m 0 min 0 min 0,0 UV-I 0 W/m 10,3 km/h (2 Bft)
20.12.2013 05:28 2,5 C 1,7 C 97 % 1015,9 hPa 0,0 l/m 0 min 0 min 0,0 UV-I 0 W/m 2,6 km/h (1 Bft)
20.12.2013 05:30 2,5 C 1,7 C 97 % 1015,9 hPa 0,0 l/m 0 min 0 min 0,0 UV-I 0 W/m 0,0 km/h (0 Bft)
20.12.2013 05:32 2,5 C 1,7 C 97 % 1015,9 hPa 0,0 l/m 0 min 0 min 0,0 UV-I 0 W/m 7,7 km/h (2 Bft)
20.12.2013 05:34 2,5 C 1,7 C 97 % 1015,8 hPa 0,0 l/m 0 min 0 min 0,0 UV-I 0 W/m 5,1 km/h (1 Bft)
20.12.2013 05:36 2,5 C 1,7 C 97 % 1015,7 hPa 0,0 l/m 0 min 0 min 0,0 UV-I 0 W/m 7,7 km/h (2 Bft)
20.12.2013 05:38 2,5 C 1,7 C 97 % 1015,7 hPa 0,0 l/m 0 min 0 min 0,0 UV-I 0 W/m 0,0 km/h (0 Bft)
20.12.2013 05:40 2,5 C 1,7 C 97 % 1015,8 hPa 0,0 l/m 0 min 0 min 0,0 UV-I 0 W/m 2,6 km/h (1 Bft)
20.12.2013 05:42 2,5 C 1,7 C 97 % 1015,9 hPa 0,0 l/m 0 min 0 min 0,0 UV-I 0 W/m 0,0 km/h (0 Bft)
20.12.2013 05:44 2,5 C 1,7 C 97 % 1015,9 hPa 0,0 l/m 0 min 0 min 0,0 UV-I 0 W/m 0,0 km/h (0 Bft)
20.12.2013 05:46 2,5 C 1,7 C 97 % 1016,0 hPa 0,0 l/m 0 min 0 min 0,0 UV-I 0 W/m 0,0 km/h (0 Bft)
20.12.2013 05:48 2,5 C 1,7 C 97 % 1016,1 hPa 0,0 l/m 0 min 0 min 0,0 UV-I 0 W/m 7,7 km/h (2 Bft)
20.12.2013 05:50 2,5 C 1,7 C 97 % 1016,1 hPa 0,0 l/m 0 min 0 min 0,0 UV-I 0 W/m 5,1 km/h (1 Bft)
20.12.2013 05:52 2,6 C 1,7 C 97 % 1016,1 hPa 0,0 l/m 0 min 0 min 0,0 UV-I 0 W/m 5,1 km/h (1 Bft)
20.12.2013 05:54 2,6 C 1,7 C 97 % 1016,2 hPa 0,0 l/m 0 min 0 min 0,0 UV-I 0 W/m 2,6 km/h (1 Bft)
20.12.2013 05:56 2,6 C 1,7 C 97 % 1016,2 hPa 0,0 l/m 0 min 0 min 0,0 UV-I 0 W/m 7,7 km/h (2 Bft)
20.12.2013 05:58 2,6 C 1,7 C 97 % 1016,2 hPa 0,0 l/m 0 min 0 min 0,0 UV-I 0 W/m 5,1 km/h (1 Bft)
20.12.2013 06:00 2,7 C 1,7 C 98 % 1016,2 hPa 0,0 l/m 0 min 0 min 0,0 UV-I 0 W/m 2,6 km/h (1 Bft)
20.12.2013 06:02 2,7 C 2,2 C 98 % 1016,3 hPa 0,0 l/m 0 min 0 min 0,0 UV-I 0 W/m 2,6 km/h (1 Bft)
20.12.2013 06:04 2,7 C 1,7 C 98 % 1016,2 hPa 0,0 l/m 0 min 0 min 0,0 UV-I 0 W/m 0,0 km/h (0 Bft)
20.12.2013 06:06 2,7 C 1,7 C 98 % 1016,3 hPa 0,0 l/m 0 min 0 min 0,0 UV-I 0 W/m 0,0 km/h (0 Bft)
20.12.2013 06:08 2,7 C 1,7 C 98 % 1016,3 hPa 0,0 l/m 0 min 0 min 0,0 UV-I 0 W/m 2,6 km/h (1 Bft)
20.12.2013 06:10 2,8 C 1,7 C 98 % 1016,4 hPa 0,0 l/m 0 min 0 min 0,0 UV-I 0 W/m 0,0 km/h (0 Bft)
20.12.2013 06:12 2,8 C 1,7 C 98 % 1016,4 hPa 0,0 l/m 0 min 0 min 0,0 UV-I 0 W/m 0,0 km/h (0 Bft)
20.12.2013 06:14 2,8 C 1,7 C 98 % 1016,4 hPa 0,0 l/m 0 min 0 min 0,0 UV-I 0 W/m 0,0 km/h (0 Bft)
20.12.2013 06:16 2,8 C 1,7 C 98 % 1016,4 hPa 0,0 l/m 0 min 0 min 0,0 UV-I 0 W/m 0,0 km/h (0 Bft)
20.12.2013 06:18 2,8 C 2,2 C 97 % 1016,5 hPa 0,0 l/m 0 min 0 min 0,0 UV-I 0 W/m 5,1 km/h (1 Bft)
20.12.2013 06:20 2,8 C 2,2 C 97 % 1016,6 hPa 0,0 l/m 0 min 0 min 0,0 UV-I 0 W/m 0,0 km/h (0 Bft)
20.12.2013 06:22 2,9 C 2,2 C 97 % 1016,6 hPa 0,0 l/m 0 min 0 min 0,0 UV-I 0 W/m 2,6 km/h (1 Bft)
20.12.2013 06:24 2,9 C 2,2 C 97 % 1016,7 hPa 0,0 l/m 0 min 0 min 0,0 UV-I 0 W/m 0,0 km/h (0 Bft)
20.12.2013 06:26 2,9 C 2,2 C 97 % 1016,6 hPa 0,0 l/m 0 min 0 min 0,0 UV-I 0 W/m 0,0 km/h (0 Bft)
20.12.2013 06:28 2,9 C 2,2 C 97 % 1016,6 hPa 0,0 l/m 0 min 0 min 0,0 UV-I 0 W/m 0,0 km/h (0 Bft)
20.12.2013 06:30 2,9 C 2,2 C 97 % 1016,7 hPa 0,0 l/m 0 min 0 min 0,0 UV-I 0 W/m 0,0 km/h (0 Bft)
20.12.2013 06:32 2,9 C 2,2 C 97 % 1016,6 hPa 0,0 l/m 0 min 0 min 0,0 UV-I 0 W/m 0,0 km/h (0 Bft)
20.12.2013 06:34 3,0 C 2,2 C 98 % 1016,7 hPa 0,0 l/m 0 min 0 min 0,0 UV-I 0 W/m 0,0 km/h (0 Bft)
20.12.2013 06:36 3,0 C 2,2 C 98 % 1016,7 hPa 0,0 l/m 0 min 0 min 0,0 UV-I 0 W/m 0,0 km/h (0 Bft)
20.12.2013 06:38 3,0 C 2,2 C 98 % 1016,7 hPa 0,0 l/m 0 min 0 min 0,0 UV-I 0 W/m 7,7 km/h (2 Bft)
20.12.2013 06:40 3,1 C 2,2 C 98 % 1016,8 hPa 0,0 l/m 0 min 0 min 0,0 UV-I 0 W/m 2,6 km/h (1 Bft)
20.12.2013 06:42 3,1 C 2,2 C 98 % 1016,8 hPa 0,0 l/m 0 min 0 min 0,0 UV-I 0 W/m 0,0 km/h (0 Bft)
20.12.2013 06:44 3,1 C 2,2 C 98 % 1016,8 hPa 0,0 l/m 0 min 0 min 0,0 UV-I 0 W/m 0,0 km/h (0 Bft)
20.12.2013 06:46 3,1 C 2,2 C 98 % 1016,8 hPa 0,0 l/m 0 min 0 min 0,0 UV-I 0 W/m 0,0 km/h (0 Bft)
20.12.2013 06:48 3,1 C 2,2 C 98 % 1016,9 hPa 0,0 l/m 0 min 0 min 0,0 UV-I 0 W/m 0,0 km/h (0 Bft)
20.12.2013 06:50 3,2 C 2,2 C 98 % 1016,9 hPa 0,0 l/m 0 min 0 min 0,0 UV-I 0 W/m 0,0 km/h (0 Bft)
20.12.2013 06:52 3,2 C 2,2 C 98 % 1017,0 hPa 0,0 l/m 0 min 0 min 0,0 UV-I 0 W/m 0,0 km/h (0 Bft)
20.12.2013 06:54 3,2 C 2,8 C 98 % 1017,0 hPa 0,0 l/m 0 min 0 min 0,0 UV-I 0 W/m 5,1 km/h (1 Bft)
20.12.2013 06:56 3,3 C 2,8 C 98 % 1017,0 hPa 0,0 l/m 0 min 0 min 0,0 UV-I 0 W/m 7,7 km/h (2 Bft)
20.12.2013 06:58 3,3 C 2,8 C 98 % 1017,0 hPa 0,0 l/m 0 min 0 min 0,0 UV-I 0 W/m 5,1 km/h (1 Bft)
20.12.2013 07:00 3,3 C 2,8 C 98 % 1017,0 hPa 0,0 l/m 0 min 0 min 0,0 UV-I 0 W/m 0,0 km/h (0 Bft)
20.12.2013 07:02 3,4 C 2,8 C 98 % 1017,1 hPa 0,0 l/m 0 min 0 min 0,0 UV-I 0 W/m 7,7 km/h (2 Bft)
20.12.2013 07:04 3,5 C 2,8 C 98 % 1017,1 hPa 0,0 l/m 0 min 0 min 0,0 UV-I 0 W/m 2,6 km/h (1 Bft)
20.12.2013 07:06 3,6 C 3,3 C 98 % 1017,1 hPa 0,0 l/m 0 min 0 min 0,0 UV-I 0 W/m 12,9 km/h (3 Bft)
20.12.2013 07:08 3,7 C 3,3 C 98 % 1017,1 hPa 0,0 l/m 0 min 0 min 0,0 UV-I 0 W/m 12,9 km/h (3 Bft)
20.12.2013 07:10 3,8 C 3,3 C 98 % 1017,2 hPa 0,0 l/m 0 min 0 min 0,0 UV-I 0 W/m 5,1 km/h (1 Bft)
20.12.2013 07:12 3,8 C 3,3 C 98 % 1017,2 hPa 0,0 l/m 0 min 0 min 0,0 UV-I 0 W/m 0,0 km/h (0 Bft)
20.12.2013 07:14 3,8 C 3,3 C 98 % 1017,2 hPa 0,0 l/m 0 min 0 min 0,0 UV-I 0 W/m 15,4 km/h (3 Bft)
20.12.2013 07:16 3,9 C 3,3 C 98 % 1017,2 hPa 0,0 l/m 0 min 0 min 0,0 UV-I 0 W/m 2,6 km/h (1 Bft)
20.12.2013 07:18 3,9 C 3,3 C 98 % 1017,2 hPa 0,0 l/m 0 min 0 min 0,0 UV-I 0 W/m 5,1 km/h (1 Bft)
20.12.2013 07:20 4,0 C 3,3 C 98 % 1017,3 hPa 0,0 l/m 0 min 0 min 0,0 UV-I 0 W/m 7,7 km/h (2 Bft)
20.12.2013 07:22 4,1 C 3,3 C 98 % 1017,5 hPa 0,0 l/m 0 min 0 min 0,0 UV-I 0 W/m 2,6 km/h (1 Bft)
20.12.2013 07:24 4,1 C 3,3 C 98 % 1017,5 hPa 0,0 l/m 0 min 0 min 0,0 UV-I 0 W/m 15,4 km/h (3 Bft)
20.12.2013 07:26 4,2 C 3,3 C 98 % 1017,5 hPa 0,0 l/m 0 min 0 min 0,0 UV-I 0 W/m 0,0 km/h (0 Bft)
20.12.2013 07:28 4,2 C 3,3 C 98 % 1017,6 hPa 0,0 l/m 0 min 0 min 0,0 UV-I 0 W/m 10,3 km/h (2 Bft)
20.12.2013 07:30 4,2 C 3,3 C 98 % 1017,7 hPa 0,0 l/m 0 min 0 min 0,0 UV-I 0 W/m 12,9 km/h (3 Bft)
20.12.2013 07:32 4,2 C 3,3 C 98 % 1017,7 hPa 0,0 l/m 0 min 0 min 0,0 UV-I 0 W/m 5,1 km/h (1 Bft)
20.12.2013 07:34 4,3 C 3,3 C 98 % 1017,6 hPa 0,0 l/m 0 min 0 min 0,0 UV-I 0 W/m 10,3 km/h (2 Bft)
20.12.2013 07:36 4,3 C 3,3 C 98 % 1017,6 hPa 0,0 l/m 0 min 0 min 0,0 UV-I 0 W/m 7,7 km/h (2 Bft)
20.12.2013 07:38 4,3 C 3,3 C 98 % 1017,6 hPa 0,0 l/m 0 min 0 min 0,0 UV-I 0 W/m 5,1 km/h (1 Bft)
20.12.2013 07:40 4,3 C 3,3 C 98 % 1017,6 hPa 0,0 l/m 0 min 0 min 0,0 UV-I 0 W/m 0,0 km/h (0 Bft)
20.12.2013 07:42 4,3 C 3,3 C 98 % 1017,7 hPa 0,0 l/m 0 min 0 min 0,0 UV-I 0 W/m 2,6 km/h (1 Bft)
20.12.2013 07:44 4,4 C 3,3 C 98 % 1017,8 hPa 0,0 l/m 0 min 0 min 0,0 UV-I 0 W/m 10,3 km/h (2 Bft)
20.12.2013 07:46 4,4 C 3,3 C 98 % 1017,8 hPa 0,0 l/m 0 min 0 min 0,0 UV-I 0 W/m 5,1 km/h (1 Bft)
20.12.2013 07:48 4,4 C 3,3 C 98 % 1017,8 hPa 0,0 l/m 0 min 0 min 0,0 UV-I 0 W/m 0,0 km/h (0 Bft)
20.12.2013 07:50 4,4 C 3,3 C 98 % 1017,9 hPa 0,0 l/m 0 min 0 min 0,0 UV-I 0 W/m 7,7 km/h (2 Bft)
20.12.2013 07:52 4,4 C 3,3 C 98 % 1017,9 hPa 0,0 l/m 0 min 0 min 0,0 UV-I 0 W/m 7,7 km/h (2 Bft)
20.12.2013 07:54 4,4 C 3,3 C 98 % 1017,9 hPa 0,0 l/m 0 min 0 min 0,0 UV-I 0 W/m 7,7 km/h (2 Bft)
20.12.2013 07:56 4,4 C 3,3 C 98 % 1017,9 hPa 0,0 l/m 0 min 0 min 0,0 UV-I 0 W/m 2,6 km/h (1 Bft)
20.12.2013 07:58 4,4 C 3,3 C 98 % 1017,9 hPa 0,0 l/m 0 min 0 min 0,0 UV-I 0 W/m 10,3 km/h (2 Bft)
20.12.2013 08:00 4,5 C 3,3 C 98 % 1018,0 hPa 0,0 l/m 0 min 0 min 0,0 UV-I 0 W/m 10,3 km/h (2 Bft)
20.12.2013 08:02 4,5 C 3,3 C 98 % 1018,2 hPa 0,0 l/m 0 min 0 min 0,0 UV-I 0 W/m 10,3 km/h (2 Bft)
20.12.2013 08:06 4,5 C 3,3 C 98 % 1018,3 hPa 0,0 l/m 0 min 0 min 0,0 UV-I 0 W/m 7,7 km/h (2 Bft)
20.12.2013 08:08 4,5 C 3,3 C 98 % 1018,2 hPa 0,0 l/m 0 min 0 min 0,0 UV-I 0 W/m 0,0 km/h (0 Bft)
20.12.2013 08:10 4,5 C 3,3 C 98 % 1018,2 hPa 0,0 l/m 0 min 0 min 0,0 UV-I 0 W/m 10,3 km/h (2 Bft)
20.12.2013 08:12 4,6 C 3,3 C 98 % 1018,4 hPa 0,0 l/m 0 min 0 min 0,0 UV-I 0 W/m 7,7 km/h (2 Bft)
20.12.2013 08:14 4,6 C 3,9 C 98 % 1018,6 hPa 0,0 l/m 0 min 0 min 0,0 UV-I 0 W/m 10,3 km/h (2 Bft)
20.12.2013 08:16 4,6 C 3,9 C 98 % 1018,7 hPa 0,0 l/m 0 min 0 min 0,0 UV-I 0 W/m 10,3 km/h (2 Bft)
20.12.2013 08:18 4,6 C 3,9 C 98 % 1018,6 hPa 0,0 l/m 0 min 0 min 0,0 UV-I 0 W/m 7,7 km/h (2 Bft)
20.12.2013 08:20 4,6 C 3,9 C 98 % 1018,6 hPa 0,0 l/m 0 min 0 min 0,0 UV-I 0 W/m 15,4 km/h (3 Bft)
20.12.2013 08:22 4,6 C 3,9 C 98 % 1018,6 hPa 0,0 l/m 0 min 0 min 0,0 UV-I 0 W/m 7,7 km/h (2 Bft)
20.12.2013 08:24 4,6 C 3,9 C 98 % 1018,6 hPa 0,0 l/m 0 min 0 min 0,0 UV-I 0 W/m 0,0 km/h (0 Bft)
20.12.2013 08:26 4,7 C 3,9 C 98 % 1018,7 hPa 0,0 l/m 0 min 0 min 0,0 UV-I 0 W/m 5,1 km/h (1 Bft)
20.12.2013 08:28 4,7 C 3,9 C 98 % 1018,6 hPa 0,0 l/m 0 min 0 min 0,0 UV-I 0 W/m 7,7 km/h (2 Bft)
20.12.2013 08:30 4,7 C 3,9 C 98 % 1018,8 hPa 0,0 l/m 0 min 0 min 0,0 UV-I 0 W/m 7,7 km/h (2 Bft)
20.12.2013 08:32 4,7 C 3,9 C 98 % 1018,8 hPa 0,0 l/m 0 min 0 min 0,0 UV-I 0 W/m 5,1 km/h (1 Bft)
20.12.2013 08:34 4,7 C 3,9 C 98 % 1018,8 hPa 0,0 l/m 0 min 0 min 0,0 UV-I 0 W/m 2,6 km/h (1 Bft)
20.12.2013 08:36 4,8 C 3,9 C 98 % 1018,8 hPa 0,0 l/m 0 min 0 min 0,0 UV-I 0 W/m 0,0 km/h (0 Bft)
20.12.2013 08:38 4,8 C 3,9 C 98 % 1018,8 hPa 0,0 l/m 0 min 0 min 0,0 UV-I 0 W/m 2,6 km/h (1 Bft)
20.12.2013 08:40 4,8 C 3,9 C 98 % 1018,9 hPa 0,0 l/m 0 min 0 min 0,0 UV-I 0 W/m 7,7 km/h (2 Bft)
20.12.2013 08:42 4,8 C 3,9 C 97 % 1019,0 hPa 0,0 l/m 0 min 0 min 0,0 UV-I 0 W/m 0,0 km/h (0 Bft)
20.12.2013 08:44 4,8 C 3,9 C 97 % 1019,0 hPa 0,0 l/m 0 min 0 min 0,0 UV-I 0 W/m 7,7 km/h (2 Bft)
20.12.2013 08:46 4,8 C 3,9 C 97 % 1019,0 hPa 0,0 l/m 0 min 0 min 0,0 UV-I 0 W/m 10,3 km/h (2 Bft)
20.12.2013 08:48 4,9 C 3,9 C 97 % 1019,2 hPa 0,0 l/m 0 min 0 min 0,0 UV-I 0 W/m 12,9 km/h (3 Bft)
20.12.2013 08:50 4,9 C 3,9 C 97 % 1019,2 hPa 0,0 l/m 0 min 0 min 0,0 UV-I 0 W/m 7,7 km/h (2 Bft)
20.12.2013 08:52 4,9 C 3,9 C 97 % 1019,2 hPa 0,0 l/m 0 min 0 min 0,0 UV-I 0 W/m 5,1 km/h (1 Bft)
20.12.2013 08:54 4,9 C 3,9 C 97 % 1019,4 hPa 0,0 l/m 0 min 0 min 0,0 UV-I 0 W/m 5,1 km/h (1 Bft)
20.12.2013 08:56 4,9 C 3,9 C 97 % 1019,5 hPa 0,0 l/m 0 min 0 min 0,0 UV-I 0 W/m 7,7 km/h (2 Bft)
20.12.2013 08:58 5,0 C 3,9 C 97 % 1019,5 hPa 0,0 l/m 0 min 0 min 0,0 UV-I 0 W/m 7,7 km/h (2 Bft)
20.12.2013 09:00 5,0 C 3,9 C 97 % 1019,6 hPa 0,0 l/m 0 min 0 min 0,0 UV-I 0 W/m 2,6 km/h (1 Bft)
20.12.2013 09:02 5,0 C 3,9 C 97 % 1019,6 hPa 0,0 l/m 0 min 0 min 0,0 UV-I 0 W/m 5,1 km/h (1 Bft)
20.12.2013 09:06 5,1 C 3,9 C 97 % 1019,9 hPa 0,0 l/m 0 min 0 min 0,0 UV-I 0 W/m 12,9 km/h (3 Bft)
20.12.2013 09:08 5,1 C 3,9 C 97 % 1019,9 hPa 0,0 l/m 0 min 0 min 0,0 UV-I 0 W/m 12,9 km/h (3 Bft)
20.12.2013 09:10 5,1 C 3,9 C 97 % 1019,9 hPa 0,0 l/m 0 min 0 min 0,0 UV-I 0 W/m 10,3 km/h (2 Bft)
20.12.2013 09:12 5,1 C 3,9 C 97 % 1019,9 hPa 0,0 l/m 0 min 0 min 0,0 UV-I 0 W/m 15,4 km/h (3 Bft)
20.12.2013 09:14 5,1 C 3,9 C 97 % 1019,9 hPa 0,0 l/m 0 min 0 min 0,0 UV-I 0 W/m 7,7 km/h (2 Bft)
20.12.2013 09:16 5,2 C 3,9 C 97 % 1020,0 hPa 0,0 l/m 0 min 0 min 0,0 UV-I 0 W/m 12,9 km/h (3 Bft)
20.12.2013 09:18 5,2 C 3,9 C 97 % 1020,0 hPa 0,0 l/m 0 min 0 min 0,0 UV-I 0 W/m 12,9 km/h (3 Bft)
20.12.2013 09:20 5,2 C 4,4 C 96 % 1020,1 hPa 0,0 l/m 0 min 0 min 0,0 UV-I 0 W/m 10,3 km/h (2 Bft)
20.12.2013 09:22 5,2 C 3,9 C 96 % 1020,1 hPa 0,0 l/m 0 min 0 min 0,0 UV-I 0 W/m 7,7 km/h (2 Bft)
20.12.2013 09:24 5,2 C 4,4 C 96 % 1020,3 hPa 0,0 l/m 0 min 0 min 0,0 UV-I 0 W/m 15,4 km/h (3 Bft)
20.12.2013 09:26 5,2 C 4,4 C 96 % 1020,3 hPa 0,0 l/m 0 min 0 min 0,0 UV-I 5 W/m 15,4 km/h (3 Bft)
20.12.2013 09:28 5,2 C 4,4 C 96 % 1020,3 hPa 0,0 l/m 0 min 0 min 0,0 UV-I 5 W/m 10,3 km/h (2 Bft)
20.12.2013 09:30 5,2 C 4,4 C 96 % 1020,4 hPa 0,0 l/m 0 min 0 min 0,0 UV-I 5 W/m 7,7 km/h (2 Bft)
20.12.2013 09:32 5,2 C 4,4 C 96 % 1020,5 hPa 0,0 l/m 0 min 0 min 0,0 UV-I 5 W/m 10,3 km/h (2 Bft)
20.12.2013 09:34 5,2 C 4,4 C 96 % 1020,6 hPa 0,0 l/m 0 min 0 min 0,0 UV-I 5 W/m 2,6 km/h (1 Bft)
20.12.2013 09:36 5,2 C 4,4 C 96 % 1020,7 hPa 0,0 l/m 0 min 0 min 0,0 UV-I 7 W/m 18,0 km/h (3 Bft)
20.12.2013 09:38 5,2 C 4,4 C 95 % 1020,7 hPa 0,0 l/m 0 min 0 min 0,0 UV-I 9 W/m 12,9 km/h (3 Bft)
20.12.2013 09:40 5,2 C 3,9 C 95 % 1020,8 hPa 0,0 l/m 0 min 0 min 0,0 UV-I 11 W/m 12,9 km/h (3 Bft)
20.12.2013 09:42 5,2 C 3,9 C 95 % 1020,7 hPa 0,0 l/m 0 min 0 min 0,0 UV-I 11 W/m 5,1 km/h (1 Bft)
20.12.2013 09:44 5,2 C 3,9 C 95 % 1020,7 hPa 0,0 l/m 0 min 0 min 0,0 UV-I 12 W/m 25,7 km/h (4 Bft)
20.12.2013 09:46 5,2 C 3,9 C 95 % 1020,7 hPa 0,0 l/m 0 min 0 min 0,0 UV-I 11 W/m 5,1 km/h (1 Bft)
20.12.2013 09:48 5,2 C 3,9 C 95 % 1020,8 hPa 0,0 l/m 0 min 0 min 0,0 UV-I 11 W/m 15,4 km/h (3 Bft)
20.12.2013 09:50 5,2 C 3,9 C 94 % 1020,8 hPa 0,0 l/m 0 min 0 min 0,0 UV-I 12 W/m 7,7 km/h (2 Bft)
20.12.2013 09:52 5,2 C 3,9 C 94 % 1020,9 hPa 0,0 l/m 0 min 0 min 0,0 UV-I 12 W/m 7,7 km/h (2 Bft)
20.12.2013 09:54 5,1 C 3,9 C 94 % 1021,0 hPa 0,0 l/m 0 min 0 min 0,0 UV-I 14 W/m 7,7 km/h (2 Bft)
20.12.2013 09:56 5,1 C 3,9 C 94 % 1021,0 hPa 0,0 l/m 0 min 0 min 0,0 UV-I 19 W/m 7,7 km/h (2 Bft)
20.12.2013 09:58 5,1 C 3,9 C 94 % 1021,1 hPa 0,0 l/m 0 min 0 min 0,0 UV-I 46 W/m 18,0 km/h (3 Bft)
20.12.2013 10:00 5,1 C 3,9 C 94 % 1021,2 hPa 0,0 l/m 0 min 0 min 0,0 UV-I 42 W/m 12,9 km/h (3 Bft)
20.12.2013 10:02 5,1 C 3,9 C 93 % 1021,2 hPa 0,0 l/m 0 min 0 min 0,0 UV-I 33 W/m 12,9 km/h (3 Bft)
20.12.2013 10:06 5,1 C 3,9 C 93 % 1021,3 hPa 0,0 l/m 0 min 0 min 0,0 UV-I 39 W/m 7,7 km/h (2 Bft)
20.12.2013 10:08 5,1 C 3,9 C 93 % 1021,4 hPa 0,0 l/m 0 min 0 min 0,0 UV-I 83 W/m 15,4 km/h (3 Bft)
20.12.2013 10:10 5,1 C 3,9 C 93 % 1021,4 hPa 0,0 l/m 0 min 0 min 0,0 UV-I 88 W/m 5,1 km/h (1 Bft)
20.12.2013 10:12 5,2 C 4,4 C 93 % 1021,4 hPa 0,0 l/m 2 min 0 min 0,0 UV-I 127 W/m 5,1 km/h (1 Bft)
20.12.2013 10:14 5,2 C 4,4 C 93 % 1021,4 hPa 0,0 l/m 2 min 0 min 0,0 UV-I 113 W/m 5,1 km/h (1 Bft)
20.12.2013 10:16 5,2 C 3,9 C 93 % 1021,4 hPa 0,0 l/m 2 min 0 min 0,0 UV-I 97 W/m 12,9 km/h (3 Bft)
20.12.2013 10:18 5,2 C 3,9 C 93 % 1021,6 hPa 0,0 l/m 2 min 0 min 0,0 UV-I 97 W/m 10,3 km/h (2 Bft)
20.12.2013 10:20 5,2 C 3,9 C 93 % 1021,5 hPa 0,0 l/m 2 min 0 min 0,0 UV-I 102 W/m 12,9 km/h (3 Bft)
20.12.2013 10:22 5,2 C 3,9 C 93 % 1021,6 hPa 0,0 l/m 2 min 0 min 0,0 UV-I 102 W/m 2,6 km/h (1 Bft)
20.12.2013 10:24 5,2 C 3,9 C 92 % 1021,6 hPa 0,0 l/m 2 min 0 min 0,0 UV-I 104 W/m 7,7 km/h (2 Bft)
20.12.2013 10:26 5,2 C 3,9 C 92 % 1021,5 hPa 0,0 l/m 2 min 0 min 0,0 UV-I 109 W/m 5,1 km/h (1 Bft)
20.12.2013 10:28 5,3 C 3,9 C 92 % 1021,6 hPa 0,0 l/m 2 min 0 min 0,0 UV-I 109 W/m 2,6 km/h (1 Bft)
20.12.2013 10:30 5,3 C 3,9 C 92 % 1021,7 hPa 0,0 l/m 2 min 0 min 0,0 UV-I 116 W/m 7,7 km/h (2 Bft)
20.12.2013 10:32 5,3 C 3,9 C 92 % 1021,7 hPa 0,0 l/m 2 min 0 min 0,0 UV-I 118 W/m 5,1 km/h (1 Bft)
20.12.2013 10:34 5,3 C 3,9 C 92 % 1021,8 hPa 0,0 l/m 2 min 0 min 0,0 UV-I 121 W/m 0,0 km/h (0 Bft)
20.12.2013 10:36 5,3 C 3,9 C 92 % 1021,9 hPa 0,0 l/m 2 min 0 min 0,0 UV-I 123 W/m 12,9 km/h (3 Bft)
20.12.2013 10:38 5,3 C 3,9 C 92 % 1021,9 hPa 0,0 l/m 2 min 0 min 0,0 UV-I 123 W/m 7,7 km/h (2 Bft)
20.12.2013 10:40 5,3 C 3,9 C 92 % 1021,9 hPa 0,0 l/m 2 min 0 min 0,0 UV-I 127 W/m 5,1 km/h (1 Bft)
20.12.2013 10:42 5,3 C 3,9 C 92 % 1022,0 hPa 0,0 l/m 2 min 0 min 0,0 UV-I 127 W/m 5,1 km/h (1 Bft)
20.12.2013 10:44 5,3 C 3,9 C 92 % 1022,0 hPa 0,0 l/m 2 min 0 min 0,0 UV-I 125 W/m 10,3 km/h (2 Bft)
20.12.2013 10:46 5,3 C 3,9 C 92 % 1022,0 hPa 0,0 l/m 2 min 0 min 0,0 UV-I 134 W/m 10,3 km/h (2 Bft)
20.12.2013 10:48 5,3 C 3,9 C 92 % 1021,9 hPa 0,0 l/m 2 min 0 min 0,0 UV-I 137 W/m 7,7 km/h (2 Bft)
20.12.2013 10:50 5,4 C 3,9 C 92 % 1022,0 hPa 0,0 l/m 2 min 0 min 0,0 UV-I 135 W/m 7,7 km/h (2 Bft)
20.12.2013 10:52 5,4 C 3,9 C 92 % 1022,0 hPa 0,0 l/m 2 min 0 min 0,0 UV-I 137 W/m 2,6 km/h (1 Bft)
20.12.2013 10:54 5,4 C 3,9 C 92 % 1022,1 hPa 0,0 l/m 2 min 0 min 0,0 UV-I 141 W/m 20,6 km/h (4 Bft)
20.12.2013 10:56 5,5 C 4,4 C 92 % 1022,0 hPa 0,0 l/m 2 min 0 min 0,0 UV-I 146 W/m 5,1 km/h (1 Bft)
20.12.2013 10:58 5,6 C 4,4 C 92 % 1022,1 hPa 0,0 l/m 2 min 0 min 0,0 UV-I 144 W/m 5,1 km/h (1 Bft)
20.12.2013 11:00 5,6 C 4,4 C 91 % 1022,0 hPa 0,0 l/m 2 min 0 min 0,0 UV-I 149 W/m 0,0 km/h (0 Bft)
20.12.2013 11:02 5,7 C 4,4 C 91 % 1022,1 hPa 0,0 l/m 2 min 0 min 0,0 UV-I 151 W/m 10,3 km/h (2 Bft)
20.12.2013 11:06 5,7 C 4,4 C 91 % 1022,2 hPa 0,0 l/m 2 min 0 min 0,0 UV-I 156 W/m 10,3 km/h (2 Bft)
20.12.2013 11:08 5,7 C 4,4 C 91 % 1022,3 hPa 0,0 l/m 2 min 0 min 0,0 UV-I 158 W/m 10,3 km/h (2 Bft)
20.12.2013 11:10 5,7 C 4,4 C 91 % 1022,2 hPa 0,0 l/m 2 min 0 min 0,0 UV-I 160 W/m 7,7 km/h (2 Bft)
20.12.2013 11:12 5,8 C 4,4 C 90 % 1022,2 hPa 0,0 l/m 2 min 0 min 0,0 UV-I 162 W/m 10,3 km/h (2 Bft)
20.12.2013 11:14 5,8 C 4,4 C 90 % 1022,3 hPa 0,0 l/m 2 min 0 min 0,0 UV-I 162 W/m 12,9 km/h (3 Bft)
20.12.2013 11:16 5,8 C 4,4 C 90 % 1022,3 hPa 0,0 l/m 2 min 0 min 0,0 UV-I 169 W/m 18,0 km/h (3 Bft)
20.12.2013 11:18 5,9 C 4,4 C 90 % 1022,3 hPa 0,0 l/m 2 min 0 min 0,0 UV-I 169 W/m 25,7 km/h (4 Bft)
20.12.2013 11:20 5,9 C 4,4 C 90 % 1022,4 hPa 0,0 l/m 2 min 0 min 0,0 UV-I 169 W/m 0,0 km/h (0 Bft)
20.12.2013 11:22 5,9 C 4,4 C 90 % 1022,5 hPa 0,0 l/m 2 min 0 min 0,0 UV-I 172 W/m 18,0 km/h (3 Bft)
20.12.2013 11:24 6,0 C 4,4 C 89 % 1022,4 hPa 0,0 l/m 2 min 0 min 0,0 UV-I 176 W/m 12,9 km/h (3 Bft)
20.12.2013 11:26 6,0 C 4,4 C 89 % 1022,4 hPa 0,0 l/m 2 min 0 min 0,0 UV-I 176 W/m 12,9 km/h (3 Bft)
20.12.2013 11:28 6,1 C 4,4 C 89 % 1022,5 hPa 0,0 l/m 2 min 0 min 0,0 UV-I 181 W/m 18,0 km/h (3 Bft)
20.12.2013 11:30 6,1 C 4,4 C 89 % 1022,4 hPa 0,0 l/m 2 min 0 min 0,0 UV-I 176 W/m 7,7 km/h (2 Bft)
20.12.2013 11:32 6,1 C 4,4 C 89 % 1022,4 hPa 0,0 l/m 2 min 0 min 0,0 UV-I 181 W/m 12,9 km/h (3 Bft)
20.12.2013 11:34 6,1 C 4,4 C 89 % 1022,5 hPa 0,0 l/m 2 min 0 min 0,0 UV-I 183 W/m 10,3 km/h (2 Bft)
20.12.2013 11:36 6,2 C 4,4 C 89 % 1022,5 hPa 0,0 l/m 2 min 0 min 0,0 UV-I 186 W/m 10,3 km/h (2 Bft)
20.12.2013 11:38 6,2 C 4,4 C 89 % 1022,5 hPa 0,0 l/m 2 min 0 min 0,0 UV-I 185 W/m 12,9 km/h (3 Bft)
20.12.2013 11:40 6,2 C 5,0 C 89 % 1022,5 hPa 0,0 l/m 2 min 0 min 0,0 UV-I 188 W/m 10,3 km/h (2 Bft)
20.12.2013 11:42 6,3 C 5,0 C 88 % 1022,5 hPa 0,0 l/m 2 min 0 min 0,0 UV-I 192 W/m 7,7 km/h (2 Bft)
20.12.2013 11:44 6,4 C 5,0 C 88 % 1022,5 hPa 0,0 l/m 2 min 0 min 0,0 UV-I 186 W/m 12,9 km/h (3 Bft)
20.12.2013 11:46 6,4 C 5,0 C 88 % 1022,5 hPa 0,0 l/m 2 min 0 min 0,0 UV-I 186 W/m 7,7 km/h (2 Bft)
20.12.2013 11:48 6,4 C 5,0 C 88 % 1022,5 hPa 0,0 l/m 2 min 0 min 0,0 UV-I 195 W/m 7,7 km/h (2 Bft)
20.12.2013 11:50 6,5 C 5,0 C 88 % 1022,6 hPa 0,0 l/m 2 min 0 min 0,0 UV-I 192 W/m 12,9 km/h (3 Bft)
20.12.2013 11:52 6,5 C 5,0 C 87 % 1022,6 hPa 0,0 l/m 2 min 0 min 0,0 UV-I 197 W/m 12,9 km/h (3 Bft)
20.12.2013 11:54 6,6 C 5,0 C 87 % 1022,6 hPa 0,0 l/m 2 min 0 min 0,0 UV-I 195 W/m 10,3 km/h (2 Bft)
20.12.2013 11:56 6,6 C 5,0 C 87 % 1022,6 hPa 0,0 l/m 2 min 0 min 0,0 UV-I 200 W/m 0,0 km/h (0 Bft)
20.12.2013 11:58 6,7 C 5,0 C 87 % 1022,6 hPa 0,0 l/m 2 min 0 min 0,0 UV-I 200 W/m 15,4 km/h (3 Bft)
20.12.2013 12:00 6,7 C 5,0 C 87 % 1022,6 hPa 0,0 l/m 2 min 0 min 0,0 UV-I 200 W/m 18,0 km/h (3 Bft)
20.12.2013 12:02 6,7 C 5,0 C 86 % 1022,6 hPa 0,0 l/m 2 min 0 min 0,0 UV-I 200 W/m 12,9 km/h (3 Bft)
20.12.2013 12:06 6,7 C 5,0 C 86 % 1022,6 hPa 0,0 l/m 2 min 0 min 0,0 UV-I 204 W/m 12,9 km/h (3 Bft)
20.12.2013 12:08 6,7 C 5,0 C 86 % 1022,7 hPa 0,0 l/m 2 min 0 min 0,0 UV-I 206 W/m 10,3 km/h (2 Bft)
20.12.2013 12:10 6,8 C 5,0 C 86 % 1022,7 hPa 0,0 l/m 2 min 0 min 0,0 UV-I 211 W/m 12,9 km/h (3 Bft)
20.12.2013 12:12 6,8 C 5,0 C 86 % 1022,7 hPa 0,0 l/m 2 min 0 min 0,0 UV-I 207 W/m 10,3 km/h (2 Bft)
20.12.2013 12:14 6,8 C 5,0 C 86 % 1022,8 hPa 0,0 l/m 2 min 0 min 0,0 UV-I 209 W/m 15,4 km/h (3 Bft)
20.12.2013 12:16 6,9 C 5,6 C 85 % 1022,8 hPa 0,0 l/m 2 min 0 min 0,0 UV-I 211 W/m 15,4 km/h (3 Bft)
20.12.2013 12:18 6,9 C 5,6 C 85 % 1022,8 hPa 0,0 l/m 2 min 0 min 0,0 UV-I 211 W/m 12,9 km/h (3 Bft)
20.12.2013 12:20 7,0 C 5,6 C 86 % 1022,8 hPa 0,0 l/m 2 min 0 min 0,0 UV-I 211 W/m 7,7 km/h (2 Bft)
20.12.2013 12:22 7,1 C 5,6 C 85 % 1022,8 hPa 0,0 l/m 2 min 0 min 0,0 UV-I 211 W/m 12,9 km/h (3 Bft)
20.12.2013 12:24 7,1 C 5,6 C 85 % 1022,8 hPa 0,0 l/m 2 min 0 min 0,0 UV-I 214 W/m 15,4 km/h (3 Bft)
20.12.2013 12:26 7,1 C 5,6 C 85 % 1022,8 hPa 0,0 l/m 2 min 0 min 0,0 UV-I 213 W/m 12,9 km/h (3 Bft)
20.12.2013 12:28 7,1 C 5,6 C 85 % 1022,8 hPa 0,0 l/m 2 min 0 min 0,0 UV-I 214 W/m 7,7 km/h (2 Bft)
20.12.2013 12:30 7,1 C 5,6 C 84 % 1022,8 hPa 0,0 l/m 2 min 0 min 0,0 UV-I 216 W/m 10,3 km/h (2 Bft)
20.12.2013 12:32 7,2 C 5,6 C 84 % 1022,8 hPa 0,0 l/m 2 min 0 min 0,0 UV-I 216 W/m 15,4 km/h (3 Bft)
20.12.2013 12:34 7,2 C 5,6 C 84 % 1022,8 hPa 0,0 l/m 2 min 0 min 0,0 UV-I 216 W/m 18,0 km/h (3 Bft)
20.12.2013 12:36 7,3 C 5,6 C 84 % 1022,8 hPa 0,0 l/m 2 min 0 min 0,0 UV-I 218 W/m 7,7 km/h (2 Bft)
20.12.2013 12:38 7,3 C 5,6 C 83 % 1022,8 hPa 0,0 l/m 2 min 0 min 0,0 UV-I 214 W/m 12,9 km/h (3 Bft)
20.12.2013 12:40 7,3 C 5,6 C 83 % 1022,8 hPa 0,0 l/m 2 min 0 min 0,0 UV-I 218 W/m 10,3 km/h (2 Bft)
20.12.2013 12:42 7,4 C 5,6 C 84 % 1022,9 hPa 0,0 l/m 2 min 0 min 0,0 UV-I 218 W/m 15,4 km/h (3 Bft)
20.12.2013 12:44 7,4 C 5,6 C 83 % 1022,9 hPa 0,0 l/m 2 min 0 min 0,0 UV-I 218 W/m 12,9 km/h (3 Bft)
20.12.2013 12:46 7,4 C 6,1 C 83 % 1022,9 hPa 0,0 l/m 2 min 0 min 0,0 UV-I 218 W/m 10,3 km/h (2 Bft)
20.12.2013 12:48 7,5 C 6,1 C 83 % 1023,1 hPa 0,0 l/m 2 min 0 min 0,0 UV-I 216 W/m 15,4 km/h (3 Bft)
20.12.2013 12:50 7,5 C 6,1 C 82 % 1023,1 hPa 0,0 l/m 2 min 0 min 0,0 UV-I 216 W/m 15,4 km/h (3 Bft)
20.12.2013 12:52 7,5 C 6,1 C 82 % 1023,1 hPa 0,0 l/m 2 min 0 min 0,0 UV-I 214 W/m 10,3 km/h (2 Bft)
20.12.2013 12:54 7,4 C 6,1 C 82 % 1023,0 hPa 0,0 l/m 2 min 0 min 0,0 UV-I 218 W/m 18,0 km/h (3 Bft)
20.12.2013 12:56 7,5 C 6,1 C 82 % 1023,2 hPa 0,0 l/m 2 min 0 min 0,0 UV-I 218 W/m 12,9 km/h (3 Bft)
20.12.2013 12:58 7,5 C 6,1 C 81 % 1023,1 hPa 0,0 l/m 2 min 0 min 0,0 UV-I 216 W/m 18,0 km/h (3 Bft)
20.12.2013 13:00 7,5 C 6,1 C 81 % 1023,1 hPa 0,0 l/m 2 min 0 min 0,0 UV-I 216 W/m 10,3 km/h (2 Bft)
20.12.2013 13:02 7,6 C 6,1 C 80 % 1023,1 hPa 0,0 l/m 2 min 0 min 0,0 UV-I 214 W/m 23,2 km/h (4 Bft)
20.12.2013 13:06 7,6 C 6,1 C 80 % 1023,2 hPa 0,0 l/m 2 min 0 min 0,0 UV-I 214 W/m 23,2 km/h (4 Bft)
20.12.2013 13:08 7,5 C 6,1 C 80 % 1023,3 hPa 0,0 l/m 2 min 0 min 0,0 UV-I 214 W/m 15,4 km/h (3 Bft)
20.12.2013 13:10 7,6 C 6,1 C 81 % 1023,3 hPa 0,0 l/m 2 min 0 min 0,0 UV-I 211 W/m 18,0 km/h (3 Bft)
20.12.2013 13:12 7,6 C 6,1 C 81 % 1023,4 hPa 0,0 l/m 2 min 0 min 0,0 UV-I 213 W/m 20,6 km/h (4 Bft)
20.12.2013 13:14 7,6 C 6,1 C 81 % 1023,4 hPa 0,0 l/m 2 min 0 min 0,0 UV-I 211 W/m 18,0 km/h (3 Bft)
20.12.2013 13:16 7,5 C 6,1 C 80 % 1023,3 hPa 0,0 l/m 2 min 0 min 0,0 UV-I 209 W/m 20,6 km/h (4 Bft)
20.12.2013 13:18 7,6 C 6,1 C 80 % 1023,4 hPa 0,0 l/m 2 min 0 min 0,0 UV-I 207 W/m 28,3 km/h (4 Bft)
20.12.2013 13:20 7,6 C 6,1 C 80 % 1023,6 hPa 0,0 l/m 2 min 0 min 0,0 UV-I 207 W/m 23,2 km/h (4 Bft)
20.12.2013 13:22 7,6 C 6,1 C 80 % 1023,4 hPa 0,0 l/m 2 min 0 min 0,0 UV-I 206 W/m 12,9 km/h (3 Bft)
20.12.2013 13:24 7,6 C 6,1 C 80 % 1023,5 hPa 0,0 l/m 2 min 0 min 0,0 UV-I 207 W/m 20,6 km/h (4 Bft)
20.12.2013 13:26 7,6 C 6,1 C 80 % 1023,6 hPa 0,0 l/m 2 min 0 min 0,0 UV-I 204 W/m 15,4 km/h (3 Bft)
20.12.2013 13:28 7,7 C 6,1 C 80 % 1023,6 hPa 0,0 l/m 2 min 0 min 0,0 UV-I 204 W/m 15,4 km/h (3 Bft)
20.12.2013 13:30 7,7 C 6,1 C 80 % 1023,6 hPa 0,0 l/m 2 min 0 min 0,0 UV-I 202 W/m 25,7 km/h (4 Bft)
20.12.2013 13:32 7,7 C 6,1 C 80 % 1023,8 hPa 0,0 l/m 2 min 0 min 0,0 UV-I 199 W/m 15,4 km/h (3 Bft)
20.12.2013 13:34 7,7 C 6,1 C 79 % 1023,7 hPa 0,0 l/m 2 min 0 min 0,0 UV-I 197 W/m 18,0 km/h (3 Bft)
20.12.2013 13:36 7,7 C 6,1 C 79 % 1023,7 hPa 0,0 l/m 2 min 0 min 0,0 UV-I 195 W/m 12,9 km/h (3 Bft)
20.12.2013 13:38 7,8 C 6,1 C 79 % 1023,7 hPa 0,0 l/m 2 min 0 min 0,0 UV-I 192 W/m 12,9 km/h (3 Bft)
20.12.2013 13:40 7,8 C 6,1 C 79 % 1023,7 hPa 0,0 l/m 2 min 0 min 0,0 UV-I 193 W/m 20,6 km/h (4 Bft)
20.12.2013 13:42 7,8 C 6,1 C 79 % 1023,7 hPa 0,0 l/m 2 min 0 min 0,0 UV-I 192 W/m 15,4 km/h (3 Bft)
20.12.2013 13:44 7,8 C 6,1 C 79 % 1023,9 hPa 0,0 l/m 2 min 0 min 0,0 UV-I 190 W/m 23,2 km/h (4 Bft)
20.12.2013 13:46 7,8 C 6,1 C 79 % 1024,0 hPa 0,0 l/m 2 min 0 min 0,0 UV-I 188 W/m 15,4 km/h (3 Bft)
20.12.2013 13:48 7,8 C 6,1 C 79 % 1023,9 hPa 0,0 l/m 2 min 0 min 0,0 UV-I 188 W/m 15,4 km/h (3 Bft)
20.12.2013 13:50 7,8 C 6,1 C 79 % 1024,0 hPa 0,0 l/m 2 min 0 min 0,0 UV-I 186 W/m 12,9 km/h (3 Bft)
20.12.2013 13:52 7,8 C 6,1 C 78 % 1023,9 hPa 0,0 l/m 2 min 0 min 0,0 UV-I 185 W/m 23,2 km/h (4 Bft)
20.12.2013 13:54 7,9 C 6,1 C 78 % 1023,9 hPa 0,0 l/m 2 min 0 min 0,0 UV-I 179 W/m 10,3 km/h (2 Bft)
20.12.2013 13:56 7,8 C 6,1 C 78 % 1023,9 hPa 0,0 l/m 2 min 0 min 0,0 UV-I 181 W/m 18,0 km/h (3 Bft)
20.12.2013 13:58 7,8 C 6,1 C 78 % 1024,0 hPa 0,0 l/m 2 min 0 min 0,0 UV-I 176 W/m 20,6 km/h (4 Bft)
20.12.2013 14:00 7,9 C 6,1 C 78 % 1024,0 hPa 0,0 l/m 2 min 0 min 0,0 UV-I 176 W/m 18,0 km/h (3 Bft)
20.12.2013 14:02 7,9 C 6,1 C 78 % 1024,0 hPa 0,0 l/m 2 min 0 min 0,0 UV-I 172 W/m 12,9 km/h (3 Bft)
20.12.2013 14:06 7,9 C 6,1 C 78 % 1024,1 hPa 0,0 l/m 2 min 0 min 0,0 UV-I 169 W/m 15,4 km/h (3 Bft)
20.12.2013 14:08 7,9 C 6,1 C 78 % 1024,1 hPa 0,0 l/m 2 min 0 min 0,0 UV-I 169 W/m 20,6 km/h (4 Bft)
20.12.2013 14:10 7,9 C 6,1 C 78 % 1024,0 hPa 0,0 l/m 2 min 0 min 0,0 UV-I 165 W/m 20,6 km/h (4 Bft)
20.12.2013 14:12 7,9 C 6,1 C 78 % 1024,1 hPa 0,0 l/m 2 min 0 min 0,0 UV-I 162 W/m 18,0 km/h (3 Bft)
20.12.2013 14:14 7,9 C 6,1 C 78 % 1024,2 hPa 0,0 l/m 2 min 0 min 0,0 UV-I 160 W/m 12,9 km/h (3 Bft)
20.12.2013 14:16 7,9 C 6,1 C 78 % 1024,2 hPa 0,0 l/m 2 min 0 min 0,0 UV-I 158 W/m 12,9 km/h (3 Bft)
20.12.2013 14:18 7,9 C 6,1 C 79 % 1024,2 hPa 0,0 l/m 2 min 0 min 0,0 UV-I 156 W/m 7,7 km/h (2 Bft)
20.12.2013 14:20 7,9 C 6,1 C 79 % 1024,1 hPa 0,0 l/m 2 min 0 min 0,0 UV-I 151 W/m 7,7 km/h (2 Bft)
20.12.2013 14:22 7,9 C 6,1 C 79 % 1024,1 hPa 0,0 l/m 2 min 0 min 0,0 UV-I 148 W/m 10,3 km/h (2 Bft)
20.12.2013 14:24 7,9 C 6,1 C 78 % 1024,2 hPa 0,0 l/m 2 min 0 min 0,0 UV-I 148 W/m 15,4 km/h (3 Bft)
20.12.2013 14:26 7,9 C 6,1 C 78 % 1024,1 hPa 0,0 l/m 2 min 0 min 0,0 UV-I 144 W/m 18,0 km/h (3 Bft)
20.12.2013 14:28 7,9 C 6,1 C 78 % 1024,1 hPa 0,0 l/m 2 min 0 min 0,0 UV-I 142 W/m 15,4 km/h (3 Bft)
20.12.2013 14:30 7,9 C 6,1 C 78 % 1024,0 hPa 0,0 l/m 2 min 0 min 0,0 UV-I 141 W/m 10,3 km/h (2 Bft)
20.12.2013 14:32 7,9 C 6,1 C 78 % 1024,0 hPa 0,0 l/m 2 min 0 min 0,0 UV-I 135 W/m 15,4 km/h (3 Bft)
20.12.2013 14:34 7,8 C 6,1 C 78 % 1024,1 hPa 0,0 l/m 2 min 0 min 0,0 UV-I 135 W/m 18,0 km/h (3 Bft)
20.12.2013 14:36 7,8 C 6,1 C 79 % 1024,1 hPa 0,0 l/m 2 min 0 min 0,0 UV-I 130 W/m 12,9 km/h (3 Bft)
20.12.2013 14:38 7,8 C 6,1 C 79 % 1024,1 hPa 0,0 l/m 2 min 0 min 0,0 UV-I 127 W/m 5,1 km/h (1 Bft)
20.12.2013 14:40 7,8 C 6,1 C 79 % 1024,1 hPa 0,0 l/m 2 min 0 min 0,0 UV-I 127 W/m 25,7 km/h (4 Bft)
20.12.2013 14:42 7,8 C 6,1 C 79 % 1024,1 hPa 0,0 l/m 2 min 0 min 0,0 UV-I 123 W/m 7,7 km/h (2 Bft)
20.12.2013 14:44 7,8 C 6,1 C 79 % 1024,2 hPa 0,0 l/m 2 min 0 min 0,0 UV-I 118 W/m 7,7 km/h (2 Bft)
20.12.2013 14:46 7,8 C 6,1 C 79 % 1024,3 hPa 0,0 l/m 2 min 0 min 0,0 UV-I 114 W/m 10,3 km/h (2 Bft)
20.12.2013 14:48 7,8 C 6,1 C 79 % 1024,4 hPa 0,0 l/m 2 min 0 min 0,0 UV-I 113 W/m 12,9 km/h (3 Bft)
20.12.2013 14:50 7,8 C 6,1 C 79 % 1024,4 hPa 0,0 l/m 2 min 0 min 0,0 UV-I 104 W/m 10,3 km/h (2 Bft)
20.12.2013 14:52 7,8 C 6,1 C 79 % 1024,4 hPa 0,0 l/m 0 min 0 min 0,0 UV-I 74 W/m 10,3 km/h (2 Bft)
20.12.2013 14:54 7,8 C 6,1 C 79 % 1024,4 hPa 0,0 l/m 0 min 0 min 0,0 UV-I 39 W/m 7,7 km/h (2 Bft)
20.12.2013 14:56 7,8 C 6,1 C 79 % 1024,5 hPa 0,0 l/m 0 min 0 min 0,0 UV-I 37 W/m 12,9 km/h (3 Bft)
20.12.2013 14:58 7,8 C 6,1 C 79 % 1024,5 hPa 0,0 l/m 0 min 0 min 0,0 UV-I 35 W/m 2,6 km/h (1 Bft)
20.12.2013 15:00 7,8 C 6,1 C 79 % 1024,5 hPa 0,0 l/m 0 min 0 min 0,0 UV-I 35 W/m 18,0 km/h (3 Bft)
20.12.2013 15:02 7,7 C 6,1 C 79 % 1024,5 hPa 0,0 l/m 0 min 0 min 0,0 UV-I 35 W/m 7,7 km/h (2 Bft)
20.12.2013 15:06 7,7 C 6,1 C 79 % 1024,6 hPa 0,0 l/m 0 min 0 min 0,0 UV-I 33 W/m 15,4 km/h (3 Bft)
20.12.2013 15:08 7,6 C 6,1 C 80 % 1024,7 hPa 0,0 l/m 0 min 0 min 0,0 UV-I 33 W/m 7,7 km/h (2 Bft)
20.12.2013 15:10 7,6 C 5,6 C 80 % 1024,8 hPa 0,0 l/m 0 min 0 min 0,0 UV-I 33 W/m 7,7 km/h (2 Bft)
20.12.2013 15:12 7,6 C 5,6 C 80 % 1024,9 hPa 0,0 l/m 0 min 0 min 0,0 UV-I 32 W/m 10,3 km/h (2 Bft)
20.12.2013 15:14 7,6 C 5,6 C 80 % 1024,8 hPa 0,0 l/m 0 min 0 min 0,0 UV-I 32 W/m 18,0 km/h (3 Bft)
20.12.2013 15:16 7,6 C 5,6 C 80 % 1024,9 hPa 0,0 l/m 0 min 0 min 0,0 UV-I 32 W/m 7,7 km/h (2 Bft)
20.12.2013 15:18 7,6 C 5,6 C 80 % 1024,9 hPa 0,0 l/m 0 min 0 min 0,0 UV-I 30 W/m 10,3 km/h (2 Bft)
20.12.2013 15:20 7,6 C 5,6 C 79 % 1025,0 hPa 0,0 l/m 0 min 0 min 0,0 UV-I 30 W/m 15,4 km/h (3 Bft)
20.12.2013 15:22 7,6 C 5,6 C 79 % 1025,1 hPa 0,0 l/m 0 min 0 min 0,0 UV-I 30 W/m 18,0 km/h (3 Bft)
20.12.2013 15:24 7,5 C 5,6 C 79 % 1025,1 hPa 0,0 l/m 0 min 0 min 0,0 UV-I 28 W/m 18,0 km/h (3 Bft)
20.12.2013 15:26 7,5 C 5,6 C 79 % 1025,1 hPa 0,0 l/m 0 min 0 min 0,0 UV-I 28 W/m 18,0 km/h (3 Bft)
20.12.2013 15:28 7,5 C 5,6 C 79 % 1025,1 hPa 0,0 l/m 0 min 0 min 0,0 UV-I 28 W/m 15,4 km/h (3 Bft)
20.12.2013 15:30 7,5 C 5,6 C 79 % 1025,1 hPa 0,0 l/m 0 min 0 min 0,0 UV-I 28 W/m 10,3 km/h (2 Bft)
20.12.2013 15:32 7,5 C 5,6 C 79 % 1025,2 hPa 0,0 l/m 0 min 0 min 0,0 UV-I 26 W/m 18,0 km/h (3 Bft)
20.12.2013 15:34 7,4 C 5,6 C 79 % 1025,2 hPa 0,0 l/m 0 min 0 min 0,0 UV-I 26 W/m 5,1 km/h (1 Bft)
20.12.2013 15:36 7,4 C 5,6 C 79 % 1025,2 hPa 0,0 l/m 0 min 0 min 0,0 UV-I 25 W/m 12,9 km/h (3 Bft)
20.12.2013 15:38 7,4 C 5,6 C 79 % 1025,2 hPa 0,0 l/m 0 min 0 min 0,0 UV-I 25 W/m 15,4 km/h (3 Bft)
20.12.2013 15:40 7,4 C 5,6 C 79 % 1025,2 hPa 0,0 l/m 0 min 0 min 0,0 UV-I 23 W/m 7,7 km/h (2 Bft)
20.12.2013 15:42 7,3 C 5,6 C 80 % 1025,2 hPa 0,0 l/m 0 min 0 min 0,0 UV-I 23 W/m 12,9 km/h (3 Bft)
20.12.2013 15:44 7,3 C 5,6 C 80 % 1025,3 hPa 0,0 l/m 0 min 0 min 0,0 UV-I 21 W/m 7,7 km/h (2 Bft)
20.12.2013 15:46 7,3 C 5,6 C 80 % 1025,3 hPa 0,0 l/m 0 min 0 min 0,0 UV-I 21 W/m 0,0 km/h (0 Bft)
20.12.2013 15:48 7,3 C 5,6 C 80 % 1025,3 hPa 0,0 l/m 0 min 0 min 0,0 UV-I 19 W/m 7,7 km/h (2 Bft)
20.12.2013 15:50 7,2 C 5,6 C 80 % 1025,3 hPa 0,0 l/m 0 min 0 min 0,0 UV-I 19 W/m 7,7 km/h (2 Bft)
20.12.2013 15:52 7,2 C 5,6 C 80 % 1025,3 hPa 0,0 l/m 0 min 0 min 0,0 UV-I 19 W/m 7,7 km/h (2 Bft)
20.12.2013 15:54 7,2 C 5,0 C 80 % 1025,4 hPa 0,0 l/m 0 min 0 min 0,0 UV-I 18 W/m 12,9 km/h (3 Bft)
20.12.2013 15:56 7,1 C 5,0 C 80 % 1025,5 hPa 0,0 l/m 0 min 0 min 0,0 UV-I 18 W/m 10,3 km/h (2 Bft)
20.12.2013 15:58 7,1 C 5,0 C 80 % 1025,5 hPa 0,0 l/m 0 min 0 min 0,0 UV-I 16 W/m 7,7 km/h (2 Bft)
20.12.2013 16:00 7,1 C 5,0 C 81 % 1025,5 hPa 0,0 l/m 0 min 0 min 0,0 UV-I 16 W/m 12,9 km/h (3 Bft)
20.12.2013 16:02 7,1 C 5,0 C 81 % 1025,5 hPa 0,0 l/m 0 min 0 min 0,0 UV-I 16 W/m 7,7 km/h (2 Bft)
20.12.2013 16:06 6,9 C 5,0 C 81 % 1025,6 hPa 0,0 l/m 0 min 0 min 0,0 UV-I 14 W/m 12,9 km/h (3 Bft)
20.12.2013 16:08 6,9 C 5,0 C 81 % 1025,7 hPa 0,0 l/m 0 min 0 min 0,0 UV-I 12 W/m 5,1 km/h (1 Bft)
20.12.2013 16:10 6,9 C 5,0 C 81 % 1025,7 hPa 0,0 l/m 0 min 0 min 0,0 UV-I 12 W/m 2,6 km/h (1 Bft)
20.12.2013 16:12 6,9 C 5,0 C 81 % 1025,8 hPa 0,0 l/m 0 min 0 min 0,0 UV-I 11 W/m 15,4 km/h (3 Bft)
20.12.2013 16:14 6,8 C 5,0 C 81 % 1025,9 hPa 0,0 l/m 0 min 0 min 0,0 UV-I 11 W/m 12,9 km/h (3 Bft)
20.12.2013 16:16 6,8 C 5,0 C 81 % 1026,0 hPa 0,0 l/m 0 min 0 min 0,0 UV-I 9 W/m 7,7 km/h (2 Bft)
20.12.2013 16:18 6,8 C 5,0 C 82 % 1026,1 hPa 0,0 l/m 0 min 0 min 0,0 UV-I 9 W/m 12,9 km/h (3 Bft)
20.12.2013 16:20 6,8 C 5,0 C 82 % 1026,2 hPa 0,0 l/m 0 min 0 min 0,0 UV-I 9 W/m 10,3 km/h (2 Bft)
20.12.2013 16:22 6,8 C 5,0 C 82 % 1026,2 hPa 0,0 l/m 0 min 0 min 0,0 UV-I 7 W/m 10,3 km/h (2 Bft)
20.12.2013 16:24 6,8 C 5,0 C 82 % 1026,3 hPa 0,0 l/m 0 min 0 min 0,0 UV-I 7 W/m 12,9 km/h (3 Bft)
20.12.2013 16:26 6,8 C 5,0 C 82 % 1026,2 hPa 0,0 l/m 0 min 0 min 0,0 UV-I 5 W/m 15,4 km/h (3 Bft)
20.12.2013 16:28 6,8 C 5,0 C 82 % 1026,2 hPa 0,0 l/m 0 min 0 min 0,0 UV-I 5 W/m 12,9 km/h (3 Bft)
20.12.2013 16:30 6,8 C 5,0 C 82 % 1026,2 hPa 0,0 l/m 0 min 0 min 0,0 UV-I 5 W/m 7,7 km/h (2 Bft)
20.12.2013 16:32 6,7 C 5,0 C 82 % 1026,3 hPa 0,0 l/m 0 min 0 min 0,0 UV-I 5 W/m 10,3 km/h (2 Bft)
20.12.2013 16:34 6,7 C 5,0 C 82 % 1026,3 hPa 0,0 l/m 0 min 0 min 0,0 UV-I 0 W/m 12,9 km/h (3 Bft)
20.12.2013 16:36 6,7 C 5,0 C 83 % 1026,4 hPa 0,0 l/m 0 min 0 min 0,0 UV-I 0 W/m 12,9 km/h (3 Bft)
20.12.2013 16:38 6,6 C 5,0 C 83 % 1026,4 hPa 0,0 l/m 0 min 0 min 0,0 UV-I 0 W/m 12,9 km/h (3 Bft)
20.12.2013 16:40 6,6 C 5,0 C 83 % 1026,4 hPa 0,0 l/m 0 min 0 min 0,0 UV-I 0 W/m 2,6 km/h (1 Bft)
20.12.2013 16:42 6,6 C 4,4 C 83 % 1026,5 hPa 0,0 l/m 0 min 0 min 0,0 UV-I 0 W/m 0,0 km/h (0 Bft)
20.12.2013 16:44 6,5 C 4,4 C 83 % 1026,5 hPa 0,0 l/m 0 min 0 min 0,0 UV-I 0 W/m 2,6 km/h (1 Bft)
20.12.2013 16:46 6,5 C 4,4 C 83 % 1026,5 hPa 0,0 l/m 0 min 0 min 0,0 UV-I 0 W/m 0,0 km/h (0 Bft)
20.12.2013 16:48 6,4 C 4,4 C 83 % 1026,5 hPa 0,0 l/m 0 min 0 min 0,0 UV-I 0 W/m 0,0 km/h (0 Bft)
20.12.2013 16:50 6,4 C 4,4 C 83 % 1026,6 hPa 0,0 l/m 0 min 0 min 0,0 UV-I 0 W/m 0,0 km/h (0 Bft)
20.12.2013 16:52 6,4 C 4,4 C 83 % 1026,6 hPa 0,0 l/m 0 min 0 min 0,0 UV-I 0 W/m 0,0 km/h (0 Bft)
20.12.2013 16:54 6,3 C 4,4 C 83 % 1026,6 hPa 0,0 l/m 0 min 0 min 0,0 UV-I 0 W/m 0,0 km/h (0 Bft)
20.12.2013 16:56 6,3 C 4,4 C 84 % 1026,7 hPa 0,0 l/m 0 min 0 min 0,0 UV-I 0 W/m 7,7 km/h (2 Bft)
20.12.2013 16:58 6,2 C 4,4 C 84 % 1026,7 hPa 0,0 l/m 0 min 0 min 0,0 UV-I 0 W/m 7,7 km/h (2 Bft)
20.12.2013 17:00 6,2 C 4,4 C 84 % 1026,6 hPa 0,0 l/m 0 min 0 min 0,0 UV-I 0 W/m 2,6 km/h (1 Bft)
20.12.2013 17:02 6,2 C 4,4 C 84 % 1026,7 hPa 0,0 l/m 0 min 0 min 0,0 UV-I 0 W/m 0,0 km/h (0 Bft)
20.12.2013 17:06 6,2 C 4,4 C 84 % 1026,6 hPa 0,0 l/m 0 min 0 min 0,0 UV-I 0 W/m 5,1 km/h (1 Bft)
20.12.2013 17:08 6,2 C 4,4 C 85 % 1026,7 hPa 0,0 l/m 0 min 0 min 0,0 UV-I 0 W/m 0,0 km/h (0 Bft)
20.12.2013 17:10 6,1 C 4,4 C 85 % 1026,7 hPa 0,0 l/m 0 min 0 min 0,0 UV-I 0 W/m 5,1 km/h (1 Bft)
20.12.2013 17:12 6,1 C 4,4 C 85 % 1026,7 hPa 0,0 l/m 0 min 0 min 0,0 UV-I 0 W/m 0,0 km/h (0 Bft)
20.12.2013 17:14 6,1 C 3,9 C 85 % 1026,8 hPa 0,0 l/m 0 min 0 min 0,0 UV-I 0 W/m 0,0 km/h (0 Bft)
20.12.2013 17:16 6,1 C 3,9 C 85 % 1026,7 hPa 0,0 l/m 0 min 0 min 0,0 UV-I 0 W/m 5,1 km/h (1 Bft)
20.12.2013 17:18 6,0 C 3,9 C 85 % 1026,7 hPa 0,0 l/m 0 min 0 min 0,0 UV-I 0 W/m 0,0 km/h (0 Bft)
20.12.2013 17:20 6,0 C 3,9 C 85 % 1026,7 hPa 0,0 l/m 0 min 0 min 0,0 UV-I 0 W/m 7,7 km/h (2 Bft)
20.12.2013 17:22 5,9 C 3,9 C 86 % 1026,7 hPa 0,0 l/m 0 min 0 min 0,0 UV-I 0 W/m 2,6 km/h (1 Bft)
20.12.2013 17:24 5,9 C 3,9 C 86 % 1026,7 hPa 0,0 l/m 0 min 0 min 0,0 UV-I 0 W/m 5,1 km/h (1 Bft)
20.12.2013 17:26 5,9 C 3,9 C 86 % 1026,7 hPa 0,0 l/m 0 min 0 min 0,0 UV-I 0 W/m 7,7 km/h (2 Bft)
20.12.2013 17:28 5,9 C 3,9 C 86 % 1026,7 hPa 0,0 l/m 0 min 0 min 0,0 UV-I 0 W/m 5,1 km/h (1 Bft)
20.12.2013 17:30 5,9 C 3,9 C 86 % 1026,8 hPa 0,0 l/m 0 min 0 min 0,0 UV-I 0 W/m 0,0 km/h (0 Bft)
20.12.2013 17:32 5,9 C 3,9 C 86 % 1026,8 hPa 0,0 l/m 0 min 0 min 0,0 UV-I 0 W/m 0,0 km/h (0 Bft)
20.12.2013 17:34 5,8 C 3,9 C 86 % 1026,8 hPa 0,0 l/m 0 min 0 min 0,0 UV-I 0 W/m 7,7 km/h (2 Bft)
20.12.2013 17:36 5,8 C 3,9 C 87 % 1026,8 hPa 0,0 l/m 0 min 0 min 0,0 UV-I 0 W/m 18,0 km/h (3 Bft)
20.12.2013 17:38 5,8 C 3,9 C 87 % 1026,8 hPa 0,0 l/m 0 min 0 min 0,0 UV-I 0 W/m 10,3 km/h (2 Bft)
20.12.2013 17:40 5,9 C 3,9 C 87 % 1026,8 hPa 0,0 l/m 0 min 0 min 0,0 UV-I 0 W/m 5,1 km/h (1 Bft)
20.12.2013 17:42 5,9 C 4,4 C 87 % 1026,8 hPa 0,0 l/m 0 min 0 min 0,0 UV-I 0 W/m 7,7 km/h (2 Bft)
20.12.2013 17:44 5,9 C 3,9 C 87 % 1026,9 hPa 0,0 l/m 0 min 0 min 0,0 UV-I 0 W/m 15,4 km/h (3 Bft)
20.12.2013 17:46 5,9 C 4,4 C 87 % 1026,9 hPa 0,0 l/m 0 min 0 min 0,0 UV-I 0 W/m 10,3 km/h (2 Bft)
20.12.2013 17:48 5,9 C 4,4 C 87 % 1026,8 hPa 0,0 l/m 0 min 0 min 0,0 UV-I 0 W/m 0,0 km/h (0 Bft)
20.12.2013 17:50 5,9 C 3,9 C 87 % 1026,8 hPa 0,0 l/m 0 min 0 min 0,0 UV-I 0 W/m 5,1 km/h (1 Bft)
20.12.2013 17:52 5,9 C 3,9 C 87 % 1026,8 hPa 0,0 l/m 0 min 0 min 0,0 UV-I 0 W/m 5,1 km/h (1 Bft)
20.12.2013 17:54 5,9 C 4,4 C 87 % 1026,8 hPa 0,0 l/m 0 min 0 min 0,0 UV-I 0 W/m 7,7 km/h (2 Bft)
20.12.2013 17:56 5,9 C 4,4 C 87 % 1026,8 hPa 0,0 l/m 0 min 0 min 0,0 UV-I 0 W/m 10,3 km/h (2 Bft)
20.12.2013 17:58 5,9 C 4,4 C 87 % 1026,8 hPa 0,0 l/m 0 min 0 min 0,0 UV-I 0 W/m 7,7 km/h (2 Bft)
20.12.2013 18:00 5,9 C 4,4 C 87 % 1026,9 hPa 0,0 l/m 0 min 0 min 0,0 UV-I 0 W/m 12,9 km/h (3 Bft)
20.12.2013 18:02 5,9 C 3,9 C 87 % 1026,9 hPa 0,0 l/m 0 min 0 min 0,0 UV-I 0 W/m 20,6 km/h (4 Bft)
20.12.2013 18:06 5,9 C 3,9 C 87 % 1026,9 hPa 0,0 l/m 0 min 0 min 0,0 UV-I 0 W/m 18,0 km/h (3 Bft)
20.12.2013 18:08 5,9 C 3,9 C 87 % 1027,0 hPa 0,0 l/m 0 min 0 min 0,0 UV-I 0 W/m 15,4 km/h (3 Bft)
20.12.2013 18:10 5,9 C 3,9 C 87 % 1027,0 hPa 0,0 l/m 0 min 0 min 0,0 UV-I 0 W/m 10,3 km/h (2 Bft)
20.12.2013 18:12 5,9 C 4,4 C 87 % 1027,1 hPa 0,0 l/m 0 min 0 min 0,0 UV-I 0 W/m 7,7 km/h (2 Bft)
20.12.2013 18:14 5,9 C 3,9 C 87 % 1027,1 hPa 0,0 l/m 0 min 0 min 0,0 UV-I 0 W/m 18,0 km/h (3 Bft)
20.12.2013 18:16 5,8 C 3,9 C 87 % 1027,1 hPa 0,0 l/m 0 min 0 min 0,0 UV-I 0 W/m 10,3 km/h (2 Bft)
20.12.2013 18:18 5,8 C 3,9 C 87 % 1027,1 hPa 0,0 l/m 0 min 0 min 0,0 UV-I 0 W/m 15,4 km/h (3 Bft)
20.12.2013 18:20 5,8 C 3,9 C 87 % 1027,1 hPa 0,0 l/m 0 min 0 min 0,0 UV-I 0 W/m 2,6 km/h (1 Bft)
20.12.2013 18:22 5,8 C 3,9 C 87 % 1027,1 hPa 0,0 l/m 0 min 0 min 0,0 UV-I 0 W/m 18,0 km/h (3 Bft)
20.12.2013 18:24 5,8 C 3,9 C 87 % 1027,1 hPa 0,0 l/m 0 min 0 min 0,0 UV-I 0 W/m 2,6 km/h (1 Bft)
20.12.2013 18:26 5,8 C 3,9 C 87 % 1027,2 hPa 0,0 l/m 0 min 0 min 0,0 UV-I 0 W/m 12,9 km/h (3 Bft)
20.12.2013 18:28 5,8 C 3,9 C 87 % 1027,1 hPa 0,0 l/m 0 min 0 min 0,0 UV-I 0 W/m 7,7 km/h (2 Bft)
20.12.2013 18:30 5,7 C 3,9 C 87 % 1027,1 hPa 0,0 l/m 0 min 0 min 0,0 UV-I 0 W/m 7,7 km/h (2 Bft)
20.12.2013 18:32 5,7 C 3,9 C 87 % 1027,1 hPa 0,0 l/m 0 min 0 min 0,0 UV-I 0 W/m 12,9 km/h (3 Bft)
20.12.2013 18:34 5,7 C 3,9 C 87 % 1027,2 hPa 0,0 l/m 0 min 0 min 0,0 UV-I 0 W/m 10,3 km/h (2 Bft)
20.12.2013 18:36 5,7 C 3,9 C 87 % 1027,1 hPa 0,0 l/m 0 min 0 min 0,0 UV-I 0 W/m 10,3 km/h (2 Bft)
20.12.2013 18:38 5,7 C 3,9 C 87 % 1027,1 hPa 0,0 l/m 0 min 0 min 0,0 UV-I 0 W/m 7,7 km/h (2 Bft)
20.12.2013 18:40 5,6 C 3,9 C 87 % 1027,1 hPa 0,0 l/m 0 min 0 min 0,0 UV-I 0 W/m 10,3 km/h (2 Bft)
20.12.2013 18:42 5,7 C 3,9 C 88 % 1027,1 hPa 0,0 l/m 0 min 0 min 0,0 UV-I 0 W/m 15,4 km/h (3 Bft)
20.12.2013 18:44 5,6 C 3,9 C 88 % 1027,1 hPa 0,0 l/m 0 min 0 min 0,0 UV-I 0 W/m 10,3 km/h (2 Bft)
20.12.2013 18:46 5,6 C 3,9 C 88 % 1027,1 hPa 0,0 l/m 0 min 0 min 0,0 UV-I 0 W/m 18,0 km/h (3 Bft)
20.12.2013 18:48 5,6 C 3,9 C 88 % 1027,2 hPa 0,0 l/m 0 min 0 min 0,0 UV-I 0 W/m 10,3 km/h (2 Bft)
20.12.2013 18:50 5,6 C 3,9 C 88 % 1027,2 hPa 0,0 l/m 0 min 0 min 0,0 UV-I 0 W/m 18,0 km/h (3 Bft)
20.12.2013 18:52 5,6 C 3,9 C 88 % 1027,3 hPa 0,0 l/m 0 min 0 min 0,0 UV-I 0 W/m 15,4 km/h (3 Bft)
20.12.2013 18:54 5,5 C 3,9 C 88 % 1027,2 hPa 0,0 l/m 0 min 0 min 0,0 UV-I 0 W/m 5,1 km/h (1 Bft)
20.12.2013 18:56 5,5 C 3,9 C 88 % 1027,2 hPa 0,0 l/m 0 min 0 min 0,0 UV-I 0 W/m 10,3 km/h (2 Bft)
20.12.2013 18:58 5,4 C 3,9 C 88 % 1027,2 hPa 0,0 l/m 0 min 0 min 0,0 UV-I 0 W/m 5,1 km/h (1 Bft)
20.12.2013 19:00 5,4 C 3,9 C 88 % 1027,1 hPa 0,0 l/m 0 min 0 min 0,0 UV-I 0 W/m 10,3 km/h (2 Bft)
20.12.2013 19:02 5,4 C 3,9 C 88 % 1027,2 hPa 0,0 l/m 0 min 0 min 0,0 UV-I 0 W/m 12,9 km/h (3 Bft)
20.12.2013 19:04 5,4 C 3,9 C 88 % 1027,3 hPa 0,0 l/m 0 min 0 min 0,0 UV-I 0 W/m 15,4 km/h (3 Bft)
20.12.2013 19:06 5,4 C 3,9 C 88 % 1027,4 hPa 0,0 l/m 0 min 0 min 0,0 UV-I 0 W/m 10,3 km/h (2 Bft)
20.12.2013 19:08 5,4 C 3,9 C 88 % 1027,3 hPa 0,0 l/m 0 min 0 min 0,0 UV-I 0 W/m 18,0 km/h (3 Bft)
20.12.2013 19:10 5,4 C 3,9 C 88 % 1027,3 hPa 0,0 l/m 0 min 0 min 0,0 UV-I 0 W/m 20,6 km/h (4 Bft)
20.12.2013 19:12 5,4 C 3,9 C 88 % 1027,2 hPa 0,0 l/m 0 min 0 min 0,0 UV-I 0 W/m 15,4 km/h (3 Bft)
20.12.2013 19:14 5,4 C 3,9 C 88 % 1027,3 hPa 0,0 l/m 0 min 0 min 0,0 UV-I 0 W/m 12,9 km/h (3 Bft)
20.12.2013 19:16 5,4 C 3,9 C 88 % 1027,3 hPa 0,0 l/m 0 min 0 min 0,0 UV-I 0 W/m 2,6 km/h (1 Bft)
20.12.2013 19:18 5,4 C 3,9 C 88 % 1027,3 hPa 0,0 l/m 0 min 0 min 0,0 UV-I 0 W/m 15,4 km/h (3 Bft)
20.12.2013 19:20 5,4 C 3,9 C 88 % 1027,3 hPa 0,0 l/m 0 min 0 min 0,0 UV-I 0 W/m 18,0 km/h (3 Bft)
20.12.2013 19:22 5,4 C 3,9 C 88 % 1027,3 hPa 0,0 l/m 0 min 0 min 0,0 UV-I 0 W/m 10,3 km/h (2 Bft)
20.12.2013 19:24 5,4 C 3,9 C 88 % 1027,3 hPa 0,0 l/m 0 min 0 min 0,0 UV-I 0 W/m 12,9 km/h (3 Bft)
20.12.2013 19:26 5,3 C 3,9 C 88 % 1027,3 hPa 0,0 l/m 0 min 0 min 0,0 UV-I 0 W/m 7,7 km/h (2 Bft)
20.12.2013 19:28 5,3 C 3,9 C 88 % 1027,4 hPa 0,0 l/m 0 min 0 min 0,0 UV-I 0 W/m 7,7 km/h (2 Bft)
20.12.2013 19:30 5,3 C 3,9 C 88 % 1027,4 hPa 0,0 l/m 0 min 0 min 0,0 UV-I 0 W/m 10,3 km/h (2 Bft)
20.12.2013 19:32 5,3 C 3,9 C 88 % 1027,5 hPa 0,0 l/m 0 min 0 min 0,0 UV-I 0 W/m 18,0 km/h (3 Bft)
20.12.2013 19:34 5,3 C 3,9 C 88 % 1027,4 hPa 0,0 l/m 0 min 0 min 0,0 UV-I 0 W/m 18,0 km/h (3 Bft)
20.12.2013 19:36 5,3 C 3,9 C 88 % 1027,4 hPa 0,0 l/m 0 min 0 min 0,0 UV-I 0 W/m 10,3 km/h (2 Bft)
20.12.2013 19:38 5,3 C 3,9 C 88 % 1027,5 hPa 0,0 l/m 0 min 0 min 0,0 UV-I 0 W/m 15,4 km/h (3 Bft)
20.12.2013 19:40 5,3 C 3,9 C 88 % 1027,6 hPa 0,0 l/m 0 min 0 min 0,0 UV-I 0 W/m 7,7 km/h (2 Bft)
20.12.2013 19:42 5,3 C 3,9 C 88 % 1027,5 hPa 0,0 l/m 0 min 0 min 0,0 UV-I 0 W/m 10,3 km/h (2 Bft)
20.12.2013 19:44 5,3 C 3,9 C 88 % 1027,6 hPa 0,0 l/m 0 min 0 min 0,0 UV-I 0 W/m 7,7 km/h (2 Bft)
20.12.2013 19:46 5,2 C 3,9 C 88 % 1027,6 hPa 0,0 l/m 0 min 0 min 0,0 UV-I 0 W/m 7,7 km/h (2 Bft)
20.12.2013 19:48 5,2 C 3,3 C 88 % 1027,6 hPa 0,0 l/m 0 min 0 min 0,0 UV-I 0 W/m 7,7 km/h (2 Bft)
20.12.2013 19:50 5,2 C 3,3 C 88 % 1027,6 hPa 0,0 l/m 0 min 0 min 0,0 UV-I 0 W/m 2,6 km/h (1 Bft)
20.12.2013 19:52 5,2 C 3,3 C 88 % 1027,6 hPa 0,0 l/m 0 min 0 min 0,0 UV-I 0 W/m 10,3 km/h (2 Bft)
20.12.2013 19:54 5,2 C 3,3 C 88 % 1027,7 hPa 0,0 l/m 0 min 0 min 0,0 UV-I 0 W/m 12,9 km/h (3 Bft)
20.12.2013 19:56 5,2 C 3,3 C 88 % 1027,7 hPa 0,0 l/m 0 min 0 min 0,0 UV-I 0 W/m 18,0 km/h (3 Bft)
20.12.2013 19:58 5,2 C 3,3 C 88 % 1027,7 hPa 0,0 l/m 0 min 0 min 0,0 UV-I 0 W/m 10,3 km/h (2 Bft)
20.12.2013 20:00 5,2 C 3,9 C 88 % 1027,6 hPa 0,0 l/m 0 min 0 min 0,0 UV-I 0 W/m 15,4 km/h (3 Bft)
20.12.2013 20:02 5,2 C 3,9 C 88 % 1027,7 hPa 0,0 l/m 0 min 0 min 0,0 UV-I 0 W/m 10,3 km/h (2 Bft)
20.12.2013 20:04 5,2 C 3,3 C 88 % 1027,6 hPa 0,0 l/m 0 min 0 min 0,0 UV-I 0 W/m 12,9 km/h (3 Bft)
20.12.2013 20:06 5,2 C 3,3 C 88 % 1027,6 hPa 0,0 l/m 0 min 0 min 0,0 UV-I 0 W/m 10,3 km/h (2 Bft)
20.12.2013 20:08 5,2 C 3,3 C 88 % 1027,6 hPa 0,0 l/m 0 min 0 min 0,0 UV-I 0 W/m 15,4 km/h (3 Bft)
20.12.2013 20:10 5,2 C 3,3 C 88 % 1027,6 hPa 0,0 l/m 0 min 0 min 0,0 UV-I 0 W/m 12,9 km/h (3 Bft)
20.12.2013 20:12 5,2 C 3,3 C 88 % 1027,5 hPa 0,0 l/m 0 min 0 min 0,0 UV-I 0 W/m 5,1 km/h (1 Bft)
20.12.2013 20:14 5,2 C 3,3 C 88 % 1027,5 hPa 0,0 l/m 0 min 0 min 0,0 UV-I 0 W/m 12,9 km/h (3 Bft)
20.12.2013 20:16 5,1 C 3,3 C 88 % 1027,6 hPa 0,0 l/m 0 min 0 min 0,0 UV-I 0 W/m 18,0 km/h (3 Bft)
20.12.2013 20:18 5,1 C 3,3 C 88 % 1027,6 hPa 0,0 l/m 0 min 0 min 0,0 UV-I 0 W/m 10,3 km/h (2 Bft)
20.12.2013 20:20 5,1 C 3,3 C 88 % 1027,7 hPa 0,0 l/m 0 min 0 min 0,0 UV-I 0 W/m 10,3 km/h (2 Bft)
20.12.2013 20:22 5,1 C 3,3 C 88 % 1027,6 hPa 0,0 l/m 0 min 0 min 0,0 UV-I 0 W/m 0,0 km/h (0 Bft)
20.12.2013 20:24 5,0 C 3,3 C 88 % 1027,7 hPa 0,0 l/m 0 min 0 min 0,0 UV-I 0 W/m 10,3 km/h (2 Bft)
20.12.2013 20:26 5,0 C 3,3 C 88 % 1027,6 hPa 0,0 l/m 0 min 0 min 0,0 UV-I 0 W/m 10,3 km/h (2 Bft)
20.12.2013 20:28 5,0 C 3,3 C 88 % 1027,6 hPa 0,0 l/m 0 min 0 min 0,0 UV-I 0 W/m 0,0 km/h (0 Bft)
20.12.2013 20:30 4,9 C 3,3 C 88 % 1027,6 hPa 0,0 l/m 0 min 0 min 0,0 UV-I 0 W/m 0,0 km/h (0 Bft)
20.12.2013 20:32 4,9 C 3,3 C 88 % 1027,6 hPa 0,0 l/m 0 min 0 min 0,0 UV-I 0 W/m 12,9 km/h (3 Bft)
20.12.2013 20:34 4,9 C 3,3 C 88 % 1027,6 hPa 0,0 l/m 0 min 0 min 0,0 UV-I 0 W/m 12,9 km/h (3 Bft)
20.12.2013 20:36 4,9 C 3,3 C 89 % 1027,7 hPa 0,0 l/m 0 min 0 min 0,0 UV-I 0 W/m 7,7 km/h (2 Bft)
20.12.2013 20:38 4,9 C 3,3 C 88 % 1027,7 hPa 0,0 l/m 0 min 0 min 0,0 UV-I 0 W/m 12,9 km/h (3 Bft)
20.12.2013 20:40 4,8 C 3,3 C 88 % 1027,6 hPa 0,0 l/m 0 min 0 min 0,0 UV-I 0 W/m 7,7 km/h (2 Bft)
20.12.2013 20:42 4,8 C 3,3 C 89 % 1027,7 hPa 0,0 l/m 0 min 0 min 0,0 UV-I 0 W/m 7,7 km/h (2 Bft)
20.12.2013 20:44 4,8 C 3,3 C 89 % 1027,7 hPa 0,0 l/m 0 min 0 min 0,0 UV-I 0 W/m 2,6 km/h (1 Bft)
20.12.2013 20:46 4,8 C 3,3 C 89 % 1027,6 hPa 0,0 l/m 0 min 0 min 0,0 UV-I 0 W/m 7,7 km/h (2 Bft)
20.12.2013 20:48 4,8 C 3,3 C 89 % 1027,5 hPa 0,0 l/m 0 min 0 min 0,0 UV-I 0 W/m 0,0 km/h (0 Bft)
20.12.2013 20:50 4,8 C 3,3 C 89 % 1027,6 hPa 0,0 l/m 0 min 0 min 0,0 UV-I 0 W/m 7,7 km/h (2 Bft)
20.12.2013 20:52 4,8 C 2,8 C 89 % 1027,6 hPa 0,0 l/m 0 min 0 min 0,0 UV-I 0 W/m 0,0 km/h (0 Bft)
20.12.2013 20:54 4,8 C 2,8 C 89 % 1027,6 hPa 0,0 l/m 0 min 0 min 0,0 UV-I 0 W/m 15,4 km/h (3 Bft)
20.12.2013 20:56 4,8 C 2,8 C 89 % 1027,7 hPa 0,0 l/m 0 min 0 min 0,0 UV-I 0 W/m 2,6 km/h (1 Bft)
20.12.2013 21:00 4,7 C 3,3 C 89 % 1027,7 hPa 0,0 l/m 0 min 0 min 0,0 UV-I 0 W/m 7,7 km/h (2 Bft)
20.12.2013 21:06 4,7 C 2,8 C 89 % 1027,6 hPa 0,0 l/m 0 min 0 min 0,0 UV-I 0 W/m 10,3 km/h (2 Bft)
20.12.2013 21:08 4,7 C 2,8 C 89 % 1027,6 hPa 0,0 l/m 0 min 0 min 0,0 UV-I 0 W/m 10,3 km/h (2 Bft)
20.12.2013 21:10 4,7 C 2,8 C 89 % 1027,7 hPa 0,0 l/m 0 min 0 min 0,0 UV-I 0 W/m 10,3 km/h (2 Bft)
20.12.2013 21:12 4,7 C 3,3 C 89 % 1027,7 hPa 0,0 l/m 0 min 0 min 0,0 UV-I 0 W/m 7,7 km/h (2 Bft)
20.12.2013 21:14 4,7 C 3,3 C 89 % 1027,6 hPa 0,0 l/m 0 min 0 min 0,0 UV-I 0 W/m 7,7 km/h (2 Bft)
20.12.2013 21:16 4,7 C 2,8 C 89 % 1027,7 hPa 0,0 l/m 0 min 0 min 0,0 UV-I 0 W/m 2,6 km/h (1 Bft)
20.12.2013 21:18 4,7 C 3,3 C 89 % 1027,7 hPa 0,0 l/m 0 min 0 min 0,0 UV-I 0 W/m 15,4 km/h (3 Bft)
20.12.2013 21:20 4,7 C 3,3 C 89 % 1027,7 hPa 0,0 l/m 0 min 0 min 0,0 UV-I 0 W/m 10,3 km/h (2 Bft)
20.12.2013 21:22 4,8 C 3,3 C 89 % 1027,6 hPa 0,0 l/m 0 min 0 min 0,0 UV-I 0 W/m 0,0 km/h (0 Bft)
20.12.2013 21:24 4,8 C 3,3 C 88 % 1027,7 hPa 0,0 l/m 0 min 0 min 0,0 UV-I 0 W/m 7,7 km/h (2 Bft)
20.12.2013 21:26 4,8 C 3,3 C 89 % 1027,7 hPa 0,0 l/m 0 min 0 min 0,0 UV-I 0 W/m 7,7 km/h (2 Bft)
20.12.2013 21:28 4,8 C 3,3 C 89 % 1027,8 hPa 0,0 l/m 0 min 0 min 0,0 UV-I 0 W/m 7,7 km/h (2 Bft)
20.12.2013 21:30 4,8 C 3,3 C 88 % 1027,9 hPa 0,0 l/m 0 min 0 min 0,0 UV-I 0 W/m 5,1 km/h (1 Bft)
20.12.2013 21:32 4,8 C 3,3 C 88 % 1028,0 hPa 0,0 l/m 0 min 0 min 0,0 UV-I 0 W/m 10,3 km/h (2 Bft)
20.12.2013 21:34 4,8 C 3,3 C 88 % 1028,0 hPa 0,0 l/m 0 min 0 min 0,0 UV-I 0 W/m 5,1 km/h (1 Bft)
20.12.2013 21:36 4,8 C 2,8 C 88 % 1027,9 hPa 0,0 l/m 0 min 0 min 0,0 UV-I 0 W/m 12,9 km/h (3 Bft)
20.12.2013 21:38 4,8 C 2,8 C 88 % 1027,9 hPa 0,0 l/m 0 min 0 min 0,0 UV-I 0 W/m 12,9 km/h (3 Bft)
20.12.2013 21:40 4,8 C 3,3 C 88 % 1027,9 hPa 0,0 l/m 0 min 0 min 0,0 UV-I 0 W/m 18,0 km/h (3 Bft)
20.12.2013 21:42 4,8 C 3,3 C 88 % 1028,0 hPa 0,0 l/m 0 min 0 min 0,0 UV-I 0 W/m 12,9 km/h (3 Bft)
20.12.2013 21:44 4,8 C 3,3 C 88 % 1028,0 hPa 0,0 l/m 0 min 0 min 0,0 UV-I 0 W/m 7,7 km/h (2 Bft)
20.12.2013 21:46 4,8 C 3,3 C 88 % 1028,0 hPa 0,0 l/m 0 min 0 min 0,0 UV-I 0 W/m 12,9 km/h (3 Bft)
20.12.2013 21:48 4,8 C 3,3 C 88 % 1028,0 hPa 0,0 l/m 0 min 0 min 0,0 UV-I 0 W/m 18,0 km/h (3 Bft)
20.12.2013 21:50 4,8 C 3,3 C 88 % 1028,0 hPa 0,0 l/m 0 min 0 min 0,0 UV-I 0 W/m 7,7 km/h (2 Bft)
20.12.2013 21:52 4,8 C 2,8 C 88 % 1028,0 hPa 0,0 l/m 0 min 0 min 0,0 UV-I 0 W/m 7,7 km/h (2 Bft)
20.12.2013 21:54 4,7 C 2,8 C 88 % 1028,0 hPa 0,0 l/m 0 min 0 min 0,0 UV-I 0 W/m 7,7 km/h (2 Bft)
20.12.2013 21:56 4,7 C 2,8 C 88 % 1028,0 hPa 0,0 l/m 0 min 0 min 0,0 UV-I 0 W/m 0,0 km/h (0 Bft)
20.12.2013 21:58 4,6 C 2,8 C 88 % 1028,0 hPa 0,0 l/m 0 min 0 min 0,0 UV-I 0 W/m 2,6 km/h (1 Bft)
20.12.2013 22:00 4,6 C 2,8 C 88 % 1028,1 hPa 0,0 l/m 0 min 0 min 0,0 UV-I 0 W/m 0,0 km/h (0 Bft)
20.12.2013 22:02 4,5 C 2,8 C 88 % 1028,0 hPa 0,0 l/m 0 min 0 min 0,0 UV-I 0 W/m 5,1 km/h (1 Bft)
20.12.2013 22:06 4,4 C 2,2 C 88 % 1027,9 hPa 0,0 l/m 0 min 0 min 0,0 UV-I 0 W/m 5,1 km/h (1 Bft)
20.12.2013 22:08 4,3 C 2,2 C 88 % 1027,9 hPa 0,0 l/m 0 min 0 min 0,0 UV-I 0 W/m 12,9 km/h (3 Bft)
20.12.2013 22:10 4,2 C 2,2 C 89 % 1027,9 hPa 0,0 l/m 0 min 0 min 0,0 UV-I 0 W/m 5,1 km/h (1 Bft)
20.12.2013 22:12 4,2 C 2,2 C 89 % 1027,9 hPa 0,0 l/m 0 min 0 min 0,0 UV-I 0 W/m 2,6 km/h (1 Bft)
20.12.2013 22:14 4,2 C 2,2 C 89 % 1028,0 hPa 0,0 l/m 0 min 0 min 0,0 UV-I 0 W/m 2,6 km/h (1 Bft)
20.12.2013 22:16 4,2 C 2,2 C 89 % 1027,9 hPa 0,0 l/m 0 min 0 min 0,0 UV-I 0 W/m 0,0 km/h (0 Bft)
20.12.2013 22:18 4,2 C 2,2 C 89 % 1028,0 hPa 0,0 l/m 0 min 0 min 0,0 UV-I 0 W/m 10,3 km/h (2 Bft)
20.12.2013 22:20 4,2 C 2,2 C 89 % 1028,1 hPa 0,0 l/m 0 min 0 min 0,0 UV-I 0 W/m 10,3 km/h (2 Bft)
20.12.2013 22:22 4,2 C 2,8 C 89 % 1028,1 hPa 0,0 l/m 0 min 0 min 0,0 UV-I 0 W/m 5,1 km/h (1 Bft)
20.12.2013 22:24 4,2 C 2,2 C 89 % 1028,2 hPa 0,0 l/m 0 min 0 min 0,0 UV-I 0 W/m 0,0 km/h (0 Bft)
20.12.2013 22:26 4,2 C 2,2 C 89 % 1028,1 hPa 0,0 l/m 0 min 0 min 0,0 UV-I 0 W/m 12,9 km/h (3 Bft)
20.12.2013 22:28 4,2 C 2,2 C 89 % 1028,2 hPa 0,0 l/m 0 min 0 min 0,0 UV-I 0 W/m 7,7 km/h (2 Bft)
20.12.2013 22:30 4,2 C 2,2 C 89 % 1028,2 hPa 0,0 l/m 0 min 0 min 0,0 UV-I 0 W/m 2,6 km/h (1 Bft)
20.12.2013 22:32 4,1 C 2,2 C 89 % 1028,1 hPa 0,0 l/m 0 min 0 min 0,0 UV-I 0 W/m 0,0 km/h (0 Bft)
20.12.2013 22:34 4,1 C 2,2 C 89 % 1028,1 hPa 0,0 l/m 0 min 0 min 0,0 UV-I 0 W/m 12,9 km/h (3 Bft)
20.12.2013 22:36 4,1 C 2,2 C 89 % 1028,1 hPa 0,0 l/m 0 min 0 min 0,0 UV-I 0 W/m 12,9 km/h (3 Bft)
20.12.2013 22:38 4,1 C 2,2 C 89 % 1028,1 hPa 0,0 l/m 0 min 0 min 0,0 UV-I 0 W/m 5,1 km/h (1 Bft)
20.12.2013 22:40 4,2 C 2,8 C 89 % 1028,1 hPa 0,0 l/m 0 min 0 min 0,0 UV-I 0 W/m 7,7 km/h (2 Bft)
20.12.2013 22:42 4,2 C 2,8 C 89 % 1028,2 hPa 0,0 l/m 0 min 0 min 0,0 UV-I 0 W/m 2,6 km/h (1 Bft)
20.12.2013 22:44 4,2 C 2,2 C 89 % 1028,1 hPa 0,0 l/m 0 min 0 min 0,0 UV-I 0 W/m 7,7 km/h (2 Bft)
20.12.2013 22:46 4,2 C 2,2 C 89 % 1028,1 hPa 0,0 l/m 0 min 0 min 0,0 UV-I 0 W/m 0,0 km/h (0 Bft)
20.12.2013 22:48 4,1 C 2,2 C 89 % 1028,0 hPa 0,0 l/m 0 min 0 min 0,0 UV-I 0 W/m 7,7 km/h (2 Bft)
20.12.2013 22:50 4,1 C 2,2 C 89 % 1028,0 hPa 0,0 l/m 0 min 0 min 0,0 UV-I 0 W/m 10,3 km/h (2 Bft)
20.12.2013 22:52 4,1 C 2,8 C 89 % 1028,0 hPa 0,0 l/m 0 min 0 min 0,0 UV-I 0 W/m 12,9 km/h (3 Bft)
20.12.2013 22:54 4,2 C 2,8 C 89 % 1028,0 hPa 0,0 l/m 0 min 0 min 0,0 UV-I 0 W/m 10,3 km/h (2 Bft)
20.12.2013 22:56 4,3 C 2,8 C 89 % 1028,0 hPa 0,0 l/m 0 min 0 min 0,0 UV-I 0 W/m 20,6 km/h (4 Bft)
20.12.2013 22:58 4,3 C 2,8 C 89 % 1028,0 hPa 0,0 l/m 0 min 0 min 0,0 UV-I 0 W/m 10,3 km/h (2 Bft)
20.12.2013 23:00 4,4 C 2,8 C 89 % 1027,9 hPa 0,0 l/m 0 min 0 min 0,0 UV-I 0 W/m 10,3 km/h (2 Bft)
20.12.2013 23:02 4,4 C 2,8 C 89 % 1027,9 hPa 0,0 l/m 0 min 0 min 0,0 UV-I 0 W/m 12,9 km/h (3 Bft)
20.12.2013 23:04 4,5 C 2,8 C 89 % 1027,9 hPa 0,0 l/m 0 min 0 min 0,0 UV-I 0 W/m 12,9 km/h (3 Bft)
20.12.2013 23:06 4,6 C 3,3 C 89 % 1027,9 hPa 0,0 l/m 0 min 0 min 0,0 UV-I 0 W/m 15,4 km/h (3 Bft)
20.12.2013 23:08 4,6 C 3,3 C 89 % 1028,0 hPa 0,0 l/m 0 min 0 min 0,0 UV-I 0 W/m 28,3 km/h (4 Bft)
20.12.2013 23:10 4,7 C 3,3 C 89 % 1027,9 hPa 0,0 l/m 0 min 0 min 0,0 UV-I 0 W/m 20,6 km/h (4 Bft)
20.12.2013 23:12 4,8 C 3,3 C 88 % 1027,9 hPa 0,0 l/m 0 min 0 min 0,0 UV-I 0 W/m 20,6 km/h (4 Bft)
20.12.2013 23:14 4,8 C 3,3 C 88 % 1028,0 hPa 0,0 l/m 0 min 0 min 0,0 UV-I 0 W/m 12,9 km/h (3 Bft)
20.12.2013 23:16 4,8 C 3,3 C 88 % 1027,9 hPa 0,0 l/m 0 min 0 min 0,0 UV-I 0 W/m 20,6 km/h (4 Bft)
20.12.2013 23:18 4,8 C 3,3 C 88 % 1027,9 hPa 0,0 l/m 0 min 0 min 0,0 UV-I 0 W/m 15,4 km/h (3 Bft)
20.12.2013 23:20 4,9 C 3,3 C 88 % 1027,9 hPa 0,0 l/m 0 min 0 min 0,0 UV-I 0 W/m 10,3 km/h (2 Bft)
20.12.2013 23:22 4,9 C 3,3 C 88 % 1028,0 hPa 0,0 l/m 0 min 0 min 0,0 UV-I 0 W/m 18,0 km/h (3 Bft)
20.12.2013 23:24 4,9 C 3,3 C 87 % 1027,9 hPa 0,0 l/m 0 min 0 min 0,0 UV-I 0 W/m 18,0 km/h (3 Bft)
20.12.2013 23:26 4,9 C 3,3 C 88 % 1027,9 hPa 0,0 l/m 0 min 0 min 0,0 UV-I 0 W/m 12,9 km/h (3 Bft)
20.12.2013 23:28 5,0 C 3,3 C 87 % 1027,9 hPa 0,0 l/m 0 min 0 min 0,0 UV-I 0 W/m 28,3 km/h (4 Bft)
20.12.2013 23:30 5,0 C 3,3 C 87 % 1027,8 hPa 0,0 l/m 0 min 0 min 0,0 UV-I 0 W/m 7,7 km/h (2 Bft)
20.12.2013 23:32 5,0 C 3,3 C 87 % 1027,9 hPa 0,0 l/m 0 min 0 min 0,0 UV-I 0 W/m 18,0 km/h (3 Bft)
20.12.2013 23:34 5,0 C 3,3 C 87 % 1027,7 hPa 0,0 l/m 0 min 0 min 0,0 UV-I 0 W/m 18,0 km/h (3 Bft)
20.12.2013 23:36 5,1 C 3,3 C 87 % 1027,6 hPa 0,0 l/m 0 min 0 min 0,0 UV-I 0 W/m 15,4 km/h (3 Bft)
20.12.2013 23:38 5,0 C 3,3 C 87 % 1027,7 hPa 0,0 l/m 0 min 0 min 0,0 UV-I 0 W/m 12,9 km/h (3 Bft)
20.12.2013 23:40 5,1 C 3,3 C 87 % 1027,7 hPa 0,0 l/m 0 min 0 min 0,0 UV-I 0 W/m 10,3 km/h (2 Bft)
20.12.2013 23:42 5,1 C 3,3 C 87 % 1027,7 hPa 0,0 l/m 0 min 0 min 0,0 UV-I 0 W/m 20,6 km/h (4 Bft)
20.12.2013 23:44 5,1 C 3,3 C 87 % 1027,6 hPa 0,0 l/m 0 min 0 min 0,0 UV-I 0 W/m 20,6 km/h (4 Bft)
20.12.2013 23:46 5,1 C 3,3 C 87 % 1027,6 hPa 0,0 l/m 0 min 0 min 0,0 UV-I 0 W/m 18,0 km/h (3 Bft)
20.12.2013 23:48 5,1 C 3,3 C 87 % 1027,6 hPa 0,0 l/m 0 min 0 min 0,0 UV-I 0 W/m 10,3 km/h (2 Bft)
20.12.2013 23:50 5,1 C 3,3 C 87 % 1027,6 hPa 0,0 l/m 0 min 0 min 0,0 UV-I 0 W/m 15,4 km/h (3 Bft)
20.12.2013 23:52 5,1 C 3,3 C 87 % 1027,7 hPa 0,0 l/m 0 min 0 min 0,0 UV-I 0 W/m 12,9 km/h (3 Bft)
20.12.2013 23:54 5,1 C 3,3 C 87 % 1027,7 hPa 0,0 l/m 0 min 0 min 0,0 UV-I 0 W/m 15,4 km/h (3 Bft)
20.12.2013 23:56 5,0 C 3,3 C 86 % 1027,6 hPa 0,0 l/m 0 min 0 min 0,0 UV-I 0 W/m 18,0 km/h (3 Bft)
20.12.2013 23:58 5,0 C 3,3 C 86 % 1027,7 hPa 0,0 l/m 0 min 0 min 0,0 UV-I 0 W/m 10,3 km/h (2 Bft)
_ Min-Zeit 04:26 00:20 13:52 00:00 - - - - - 00:00
Minimum _ 1,7 C 0,6 C 78 % 1012,1 hPa - - - - - 0,0 km/h (0 Bft)
_ Max-Zeit 13:52 12:46 06:00 22:24 00:00 10:12 00:00 00:00 12:36 13:18
Maximum _ 7,9 C 6,1 C 98 % 1028,2 hPa 0,0 l/m 2 min 0 min 0,0 UV-I 218 W/m 28,3 km/h
S-SW (4 Bft)
Durchschnitt _ 4,7 C 3,3 C 90 % 1021,6 hPa #0,0 l/m #4:32 h #0 min. 0,0 UV-I 122 W/m 7,7 km/h (2 Bft)
© 2013 W. Hausmann